<?xml version="1.0" encoding="UTF-8" standalone="no" ?>
<gpx xmlns="http://www.topografix.com/GPX/1/1" xmlns:xsi="http://www.w3.org/2001/XMLSchema-instance" xsi:schemaLocation="http://www.topografix.com/GPX/1/1 http://www.topografix.com/GPX/1/1/gpx.xsd" version="1.1" creator="VisuGPX - https://www.visugpx.com">
  <metadata>
    <name>Tour de la Dôle et passage au sommet</name>
    <desc><![CDATA[Circuit Trail à la rencontre des chamoix.]]></desc>
  </metadata>
  <trk>
    <name><![CDATA[Tour de La Dole]]></name>
    <desc><![CDATA[]]></desc>
    <trkseg>
      <trkpt lat="46.44298" lon="6.08559">
        <ele>1305.4</ele>
        <time>2012-08-21T16:29:39.440Z</time>
      </trkpt>
      <trkpt lat="46.44329" lon="6.08557">
        <ele>1334.2</ele>
        <time>2012-08-21T16:29:40.447Z</time>
      </trkpt>
      <trkpt lat="46.44311" lon="6.08651">
        <ele>1298.9</ele>
        <time>2012-08-21T16:30:00.462Z</time>
      </trkpt>
      <trkpt lat="46.44301" lon="6.08655">
        <ele>1298.1</ele>
        <time>2012-08-21T16:30:01.442Z</time>
      </trkpt>
      <trkpt lat="46.44306" lon="6.08658">
        <ele>1302.4</ele>
        <time>2012-08-21T16:30:03.432Z</time>
      </trkpt>
      <trkpt lat="46.44324" lon="6.08673">
        <ele>1303.8</ele>
        <time>2012-08-21T16:30:04.435Z</time>
      </trkpt>
      <trkpt lat="46.44312" lon="6.08671">
        <ele>1307.7</ele>
        <time>2012-08-21T16:30:05.447Z</time>
      </trkpt>
      <trkpt lat="46.44298" lon="6.0868">
        <ele>1292.4</ele>
        <time>2012-08-21T16:30:06.442Z</time>
      </trkpt>
      <trkpt lat="46.44284" lon="6.0868">
        <ele>1281.2</ele>
        <time>2012-08-21T16:30:07.441Z</time>
      </trkpt>
      <trkpt lat="46.44293" lon="6.08688">
        <ele>1280.2</ele>
        <time>2012-08-21T16:30:08.439Z</time>
      </trkpt>
      <trkpt lat="46.44288" lon="6.08691">
        <ele>1281.1</ele>
        <time>2012-08-21T16:30:09.447Z</time>
      </trkpt>
      <trkpt lat="46.44302" lon="6.08693">
        <ele>1302.4</ele>
        <time>2012-08-21T16:30:10.452Z</time>
      </trkpt>
      <trkpt lat="46.443" lon="6.08685">
        <ele>1307.2</ele>
        <time>2012-08-21T16:30:11.444Z</time>
      </trkpt>
      <trkpt lat="46.44305" lon="6.08677">
        <ele>1309.2</ele>
        <time>2012-08-21T16:30:12.439Z</time>
      </trkpt>
      <trkpt lat="46.44296" lon="6.08687">
        <ele>1305.5</ele>
        <time>2012-08-21T16:30:13.434Z</time>
      </trkpt>
      <trkpt lat="46.443" lon="6.08705">
        <ele>1303.4</ele>
        <time>2012-08-21T16:30:15.441Z</time>
      </trkpt>
      <trkpt lat="46.44301" lon="6.08714">
        <ele>1312.1</ele>
        <time>2012-08-21T16:30:17.431Z</time>
      </trkpt>
      <trkpt lat="46.44296" lon="6.0872">
        <ele>1318</ele>
        <time>2012-08-21T16:30:19.437Z</time>
      </trkpt>
      <trkpt lat="46.44285" lon="6.08712">
        <ele>1317.8</ele>
        <time>2012-08-21T16:30:20.432Z</time>
      </trkpt>
      <trkpt lat="46.44291" lon="6.08717">
        <ele>1311.3</ele>
        <time>2012-08-21T16:30:21.434Z</time>
      </trkpt>
      <trkpt lat="46.44286" lon="6.08715">
        <ele>1322.6</ele>
        <time>2012-08-21T16:30:22.433Z</time>
      </trkpt>
      <trkpt lat="46.4428" lon="6.08721">
        <ele>1319.7</ele>
        <time>2012-08-21T16:30:24.441Z</time>
      </trkpt>
      <trkpt lat="46.44275" lon="6.08732">
        <ele>1308</ele>
        <time>2012-08-21T16:30:26.443Z</time>
      </trkpt>
      <trkpt lat="46.44286" lon="6.08746">
        <ele>1302</ele>
        <time>2012-08-21T16:30:29.444Z</time>
      </trkpt>
      <trkpt lat="46.44283" lon="6.08752">
        <ele>1303</ele>
        <time>2012-08-21T16:30:30.445Z</time>
      </trkpt>
      <trkpt lat="46.44295" lon="6.08763">
        <ele>1316.4</ele>
        <time>2012-08-21T16:30:34.440Z</time>
      </trkpt>
      <trkpt lat="46.44281" lon="6.08764">
        <ele>1295.9</ele>
        <time>2012-08-21T16:30:36.437Z</time>
      </trkpt>
      <trkpt lat="46.44286" lon="6.08764">
        <ele>1296.2</ele>
        <time>2012-08-21T16:30:37.445Z</time>
      </trkpt>
      <trkpt lat="46.4428" lon="6.08769">
        <ele>1298.9</ele>
        <time>2012-08-21T16:30:38.445Z</time>
      </trkpt>
      <trkpt lat="46.44285" lon="6.0878">
        <ele>1303.2</ele>
        <time>2012-08-21T16:30:39.442Z</time>
      </trkpt>
      <trkpt lat="46.44291" lon="6.08788">
        <ele>1306</ele>
        <time>2012-08-21T16:30:40.453Z</time>
      </trkpt>
      <trkpt lat="46.4429" lon="6.08801">
        <ele>1287.2</ele>
        <time>2012-08-21T16:30:41.458Z</time>
      </trkpt>
      <trkpt lat="46.44277" lon="6.08792">
        <ele>1294.2</ele>
        <time>2012-08-21T16:30:42.461Z</time>
      </trkpt>
      <trkpt lat="46.44285" lon="6.08795">
        <ele>1312.8</ele>
        <time>2012-08-21T16:30:44.447Z</time>
      </trkpt>
      <trkpt lat="46.44289" lon="6.08792">
        <ele>1334.1</ele>
        <time>2012-08-21T16:30:45.441Z</time>
      </trkpt>
      <trkpt lat="46.44282" lon="6.08792">
        <ele>1318.7</ele>
        <time>2012-08-21T16:30:46.434Z</time>
      </trkpt>
      <trkpt lat="46.44273" lon="6.08788">
        <ele>1313.1</ele>
        <time>2012-08-21T16:30:47.436Z</time>
      </trkpt>
      <trkpt lat="46.4426" lon="6.08789">
        <ele>1271.5</ele>
        <time>2012-08-21T16:30:48.440Z</time>
      </trkpt>
      <trkpt lat="46.44268" lon="6.08821">
        <ele>1290.9</ele>
        <time>2012-08-21T16:30:50.442Z</time>
      </trkpt>
      <trkpt lat="46.44248" lon="6.08807">
        <ele>1282.8</ele>
        <time>2012-08-21T16:30:52.000Z</time>
      </trkpt>
      <trkpt lat="46.44251" lon="6.08801">
        <ele>1284.9</ele>
        <time>2012-08-21T16:31:10.000Z</time>
      </trkpt>
      <trkpt lat="46.4425" lon="6.08808">
        <ele>1290.6</ele>
        <time>2012-08-21T16:31:17.000Z</time>
      </trkpt>
      <trkpt lat="46.44254" lon="6.08802">
        <ele>1294</ele>
        <time>2012-08-21T16:31:23.000Z</time>
      </trkpt>
      <trkpt lat="46.44261" lon="6.08808">
        <ele>1296.9</ele>
        <time>2012-08-21T16:31:31.000Z</time>
      </trkpt>
      <trkpt lat="46.44264" lon="6.08814">
        <ele>1298</ele>
        <time>2012-08-21T16:31:32.000Z</time>
      </trkpt>
      <trkpt lat="46.44269" lon="6.08822">
        <ele>1301.8</ele>
        <time>2012-08-21T16:31:34.000Z</time>
      </trkpt>
      <trkpt lat="46.44273" lon="6.08832">
        <ele>1302.1</ele>
        <time>2012-08-21T16:31:36.000Z</time>
      </trkpt>
      <trkpt lat="46.44272" lon="6.08838">
        <ele>1303.2</ele>
        <time>2012-08-21T16:31:37.000Z</time>
      </trkpt>
      <trkpt lat="46.4427" lon="6.08847">
        <ele>1300.8</ele>
        <time>2012-08-21T16:31:39.000Z</time>
      </trkpt>
      <trkpt lat="46.44268" lon="6.08855">
        <ele>1301.6</ele>
        <time>2012-08-21T16:31:41.000Z</time>
      </trkpt>
      <trkpt lat="46.44267" lon="6.08863">
        <ele>1300.4</ele>
        <time>2012-08-21T16:31:43.000Z</time>
      </trkpt>
      <trkpt lat="46.44266" lon="6.08871">
        <ele>1301</ele>
        <time>2012-08-21T16:31:46.000Z</time>
      </trkpt>
      <trkpt lat="46.44266" lon="6.08879">
        <ele>1302.7</ele>
        <time>2012-08-21T16:31:50.000Z</time>
      </trkpt>
      <trkpt lat="46.44262" lon="6.08885">
        <ele>1302.8</ele>
        <time>2012-08-21T16:31:58.000Z</time>
      </trkpt>
      <trkpt lat="46.44259" lon="6.08891">
        <ele>1305.7</ele>
        <time>2012-08-21T16:32:01.000Z</time>
      </trkpt>
      <trkpt lat="46.44255" lon="6.08896">
        <ele>1306.7</ele>
        <time>2012-08-21T16:32:03.000Z</time>
      </trkpt>
      <trkpt lat="46.44251" lon="6.08901">
        <ele>1307.1</ele>
        <time>2012-08-21T16:32:05.000Z</time>
      </trkpt>
      <trkpt lat="46.44248" lon="6.08906">
        <ele>1305.2</ele>
        <time>2012-08-21T16:32:07.000Z</time>
      </trkpt>
      <trkpt lat="46.44246" lon="6.08912">
        <ele>1305.6</ele>
        <time>2012-08-21T16:32:09.000Z</time>
      </trkpt>
      <trkpt lat="46.44245" lon="6.0892">
        <ele>1305.3</ele>
        <time>2012-08-21T16:32:11.000Z</time>
      </trkpt>
      <trkpt lat="46.44242" lon="6.08927">
        <ele>1306</ele>
        <time>2012-08-21T16:32:13.000Z</time>
      </trkpt>
      <trkpt lat="46.4424" lon="6.08934">
        <ele>1306.4</ele>
        <time>2012-08-21T16:32:15.000Z</time>
      </trkpt>
      <trkpt lat="46.44237" lon="6.08941">
        <ele>1306.9</ele>
        <time>2012-08-21T16:32:17.000Z</time>
      </trkpt>
      <trkpt lat="46.44231" lon="6.08947">
        <ele>1300.6</ele>
        <time>2012-08-21T16:32:19.000Z</time>
      </trkpt>
      <trkpt lat="46.44227" lon="6.08952">
        <ele>1301.7</ele>
        <time>2012-08-21T16:32:21.000Z</time>
      </trkpt>
      <trkpt lat="46.44223" lon="6.08957">
        <ele>1301</ele>
        <time>2012-08-21T16:32:23.000Z</time>
      </trkpt>
      <trkpt lat="46.44217" lon="6.08962">
        <ele>1302.4</ele>
        <time>2012-08-21T16:32:26.000Z</time>
      </trkpt>
      <trkpt lat="46.44213" lon="6.08966">
        <ele>1305.1</ele>
        <time>2012-08-21T16:32:29.000Z</time>
      </trkpt>
      <trkpt lat="46.44211" lon="6.08972">
        <ele>1302.9</ele>
        <time>2012-08-21T16:32:32.000Z</time>
      </trkpt>
      <trkpt lat="46.44212" lon="6.08979">
        <ele>1307.7</ele>
        <time>2012-08-21T16:32:35.000Z</time>
      </trkpt>
      <trkpt lat="46.44214" lon="6.08986">
        <ele>1311.7</ele>
        <time>2012-08-21T16:32:38.000Z</time>
      </trkpt>
      <trkpt lat="46.44218" lon="6.0899">
        <ele>1313.6</ele>
        <time>2012-08-21T16:32:40.000Z</time>
      </trkpt>
      <trkpt lat="46.44221" lon="6.08996">
        <ele>1312</ele>
        <time>2012-08-21T16:32:44.000Z</time>
      </trkpt>
      <trkpt lat="46.44219" lon="6.09002">
        <ele>1313.1</ele>
        <time>2012-08-21T16:32:48.000Z</time>
      </trkpt>
      <trkpt lat="46.44211" lon="6.09008">
        <ele>1309.6</ele>
        <time>2012-08-21T16:32:50.000Z</time>
      </trkpt>
      <trkpt lat="46.44205" lon="6.09013">
        <ele>1309.1</ele>
        <time>2012-08-21T16:32:52.000Z</time>
      </trkpt>
      <trkpt lat="46.44199" lon="6.09018">
        <ele>1311.6</ele>
        <time>2012-08-21T16:32:54.000Z</time>
      </trkpt>
      <trkpt lat="46.44194" lon="6.09022">
        <ele>1309.6</ele>
        <time>2012-08-21T16:32:56.000Z</time>
      </trkpt>
      <trkpt lat="46.44189" lon="6.09026">
        <ele>1311.4</ele>
        <time>2012-08-21T16:32:58.000Z</time>
      </trkpt>
      <trkpt lat="46.44184" lon="6.0903">
        <ele>1310.5</ele>
        <time>2012-08-21T16:33:01.000Z</time>
      </trkpt>
      <trkpt lat="46.44181" lon="6.09034">
        <ele>1310.3</ele>
        <time>2012-08-21T16:33:04.000Z</time>
      </trkpt>
      <trkpt lat="46.44178" lon="6.09043">
        <ele>1313.8</ele>
        <time>2012-08-21T16:33:08.000Z</time>
      </trkpt>
      <trkpt lat="46.44177" lon="6.0905">
        <ele>1316.3</ele>
        <time>2012-08-21T16:33:11.000Z</time>
      </trkpt>
      <trkpt lat="46.44175" lon="6.09058">
        <ele>1321</ele>
        <time>2012-08-21T16:33:15.000Z</time>
      </trkpt>
      <trkpt lat="46.44175" lon="6.09065">
        <ele>1321</ele>
        <time>2012-08-21T16:33:18.000Z</time>
      </trkpt>
      <trkpt lat="46.44172" lon="6.09072">
        <ele>1322</ele>
        <time>2012-08-21T16:33:21.000Z</time>
      </trkpt>
      <trkpt lat="46.44167" lon="6.09079">
        <ele>1321.1</ele>
        <time>2012-08-21T16:33:24.000Z</time>
      </trkpt>
      <trkpt lat="46.44163" lon="6.09084">
        <ele>1320.3</ele>
        <time>2012-08-21T16:33:26.000Z</time>
      </trkpt>
      <trkpt lat="46.4416" lon="6.09089">
        <ele>1321.6</ele>
        <time>2012-08-21T16:33:28.000Z</time>
      </trkpt>
      <trkpt lat="46.44156" lon="6.09096">
        <ele>1323.3</ele>
        <time>2012-08-21T16:33:31.000Z</time>
      </trkpt>
      <trkpt lat="46.44154" lon="6.09104">
        <ele>1325.9</ele>
        <time>2012-08-21T16:33:34.000Z</time>
      </trkpt>
      <trkpt lat="46.44149" lon="6.09108">
        <ele>1323.8</ele>
        <time>2012-08-21T16:33:38.000Z</time>
      </trkpt>
      <trkpt lat="46.44144" lon="6.0911">
        <ele>1322.2</ele>
        <time>2012-08-21T16:33:40.000Z</time>
      </trkpt>
      <trkpt lat="46.44141" lon="6.09114">
        <ele>1321.3</ele>
        <time>2012-08-21T16:33:42.000Z</time>
      </trkpt>
      <trkpt lat="46.44136" lon="6.09119">
        <ele>1322</ele>
        <time>2012-08-21T16:33:46.000Z</time>
      </trkpt>
      <trkpt lat="46.4413" lon="6.09121">
        <ele>1322.4</ele>
        <time>2012-08-21T16:33:49.000Z</time>
      </trkpt>
      <trkpt lat="46.44122" lon="6.09124">
        <ele>1321.1</ele>
        <time>2012-08-21T16:33:52.000Z</time>
      </trkpt>
      <trkpt lat="46.44118" lon="6.09126">
        <ele>1321.9</ele>
        <time>2012-08-21T16:33:54.000Z</time>
      </trkpt>
      <trkpt lat="46.44113" lon="6.09128">
        <ele>1323.1</ele>
        <time>2012-08-21T16:33:56.000Z</time>
      </trkpt>
      <trkpt lat="46.44108" lon="6.09131">
        <ele>1323.2</ele>
        <time>2012-08-21T16:33:58.000Z</time>
      </trkpt>
      <trkpt lat="46.44104" lon="6.09133">
        <ele>1323.3</ele>
        <time>2012-08-21T16:34:00.000Z</time>
      </trkpt>
      <trkpt lat="46.441" lon="6.09138">
        <ele>1321.4</ele>
        <time>2012-08-21T16:34:02.000Z</time>
      </trkpt>
      <trkpt lat="46.44096" lon="6.09143">
        <ele>1321.4</ele>
        <time>2012-08-21T16:34:04.000Z</time>
      </trkpt>
      <trkpt lat="46.44091" lon="6.09148">
        <ele>1323.1</ele>
        <time>2012-08-21T16:34:07.000Z</time>
      </trkpt>
      <trkpt lat="46.44086" lon="6.0915">
        <ele>1324.6</ele>
        <time>2012-08-21T16:34:10.000Z</time>
      </trkpt>
      <trkpt lat="46.44081" lon="6.09151">
        <ele>1325</ele>
        <time>2012-08-21T16:34:13.000Z</time>
      </trkpt>
      <trkpt lat="46.44076" lon="6.0915">
        <ele>1327.8</ele>
        <time>2012-08-21T16:34:17.000Z</time>
      </trkpt>
      <trkpt lat="46.44071" lon="6.09148">
        <ele>1331</ele>
        <time>2012-08-21T16:34:22.000Z</time>
      </trkpt>
      <trkpt lat="46.44067" lon="6.09153">
        <ele>1331.7</ele>
        <time>2012-08-21T16:34:26.000Z</time>
      </trkpt>
      <trkpt lat="46.44063" lon="6.09158">
        <ele>1332.2</ele>
        <time>2012-08-21T16:34:28.000Z</time>
      </trkpt>
      <trkpt lat="46.44059" lon="6.09162">
        <ele>1332.5</ele>
        <time>2012-08-21T16:34:31.000Z</time>
      </trkpt>
      <trkpt lat="46.44055" lon="6.09167">
        <ele>1332.3</ele>
        <time>2012-08-21T16:34:34.000Z</time>
      </trkpt>
      <trkpt lat="46.4405" lon="6.09173">
        <ele>1335.6</ele>
        <time>2012-08-21T16:34:37.000Z</time>
      </trkpt>
      <trkpt lat="46.44045" lon="6.09179">
        <ele>1336.2</ele>
        <time>2012-08-21T16:34:40.000Z</time>
      </trkpt>
      <trkpt lat="46.44041" lon="6.09185">
        <ele>1336.1</ele>
        <time>2012-08-21T16:34:43.000Z</time>
      </trkpt>
      <trkpt lat="46.44037" lon="6.0919">
        <ele>1336.7</ele>
        <time>2012-08-21T16:34:46.000Z</time>
      </trkpt>
      <trkpt lat="46.44035" lon="6.09196">
        <ele>1337.4</ele>
        <time>2012-08-21T16:34:51.000Z</time>
      </trkpt>
      <trkpt lat="46.4403" lon="6.09201">
        <ele>1340.6</ele>
        <time>2012-08-21T16:35:00.000Z</time>
      </trkpt>
      <trkpt lat="46.44028" lon="6.09208">
        <ele>1340.2</ele>
        <time>2012-08-21T16:35:04.000Z</time>
      </trkpt>
      <trkpt lat="46.44026" lon="6.09215">
        <ele>1340.4</ele>
        <time>2012-08-21T16:35:12.000Z</time>
      </trkpt>
      <trkpt lat="46.44023" lon="6.09223">
        <ele>1339</ele>
        <time>2012-08-21T16:35:31.000Z</time>
      </trkpt>
      <trkpt lat="46.4402" lon="6.09227">
        <ele>1339.1</ele>
        <time>2012-08-21T16:35:33.000Z</time>
      </trkpt>
      <trkpt lat="46.44016" lon="6.09232">
        <ele>1338.6</ele>
        <time>2012-08-21T16:35:35.000Z</time>
      </trkpt>
      <trkpt lat="46.44012" lon="6.09236">
        <ele>1338.8</ele>
        <time>2012-08-21T16:35:37.000Z</time>
      </trkpt>
      <trkpt lat="46.44007" lon="6.09242">
        <ele>1339.4</ele>
        <time>2012-08-21T16:35:40.000Z</time>
      </trkpt>
      <trkpt lat="46.44002" lon="6.09245">
        <ele>1343.2</ele>
        <time>2012-08-21T16:35:43.000Z</time>
      </trkpt>
      <trkpt lat="46.43996" lon="6.09248">
        <ele>1343.2</ele>
        <time>2012-08-21T16:35:46.000Z</time>
      </trkpt>
      <trkpt lat="46.43991" lon="6.09252">
        <ele>1343.8</ele>
        <time>2012-08-21T16:35:49.000Z</time>
      </trkpt>
      <trkpt lat="46.43988" lon="6.09258">
        <ele>1343.8</ele>
        <time>2012-08-21T16:35:52.000Z</time>
      </trkpt>
      <trkpt lat="46.43984" lon="6.09263">
        <ele>1342</ele>
        <time>2012-08-21T16:35:56.000Z</time>
      </trkpt>
      <trkpt lat="46.4398" lon="6.09269">
        <ele>1344.9</ele>
        <time>2012-08-21T16:36:00.000Z</time>
      </trkpt>
      <trkpt lat="46.43976" lon="6.09273">
        <ele>1344.5</ele>
        <time>2012-08-21T16:36:03.000Z</time>
      </trkpt>
      <trkpt lat="46.43972" lon="6.09277">
        <ele>1345.2</ele>
        <time>2012-08-21T16:36:05.000Z</time>
      </trkpt>
      <trkpt lat="46.43969" lon="6.09282">
        <ele>1345.1</ele>
        <time>2012-08-21T16:36:07.000Z</time>
      </trkpt>
      <trkpt lat="46.43968" lon="6.09291">
        <ele>1347.7</ele>
        <time>2012-08-21T16:36:10.000Z</time>
      </trkpt>
      <trkpt lat="46.43968" lon="6.09291">
        <ele>1347.7</ele>
        <time>2012-08-21T16:36:10.000Z</time>
      </trkpt>
      <trkpt lat="46.43968" lon="6.09291">
        <ele>1347.7</ele>
        <time>2012-08-21T16:36:11.000Z</time>
      </trkpt>
      <trkpt lat="46.43965" lon="6.09299">
        <ele>1349.9</ele>
        <time>2012-08-21T16:36:19.000Z</time>
      </trkpt>
      <trkpt lat="46.43962" lon="6.09304">
        <ele>1351.1</ele>
        <time>2012-08-21T16:36:21.000Z</time>
      </trkpt>
      <trkpt lat="46.43959" lon="6.09312">
        <ele>1350</ele>
        <time>2012-08-21T16:36:23.000Z</time>
      </trkpt>
      <trkpt lat="46.43956" lon="6.09318">
        <ele>1350.4</ele>
        <time>2012-08-21T16:36:25.000Z</time>
      </trkpt>
      <trkpt lat="46.43952" lon="6.09323">
        <ele>1350.6</ele>
        <time>2012-08-21T16:36:27.000Z</time>
      </trkpt>
      <trkpt lat="46.43949" lon="6.09329">
        <ele>1350.5</ele>
        <time>2012-08-21T16:36:29.000Z</time>
      </trkpt>
      <trkpt lat="46.43946" lon="6.09335">
        <ele>1351.1</ele>
        <time>2012-08-21T16:36:31.000Z</time>
      </trkpt>
      <trkpt lat="46.43943" lon="6.09341">
        <ele>1351</ele>
        <time>2012-08-21T16:36:33.000Z</time>
      </trkpt>
      <trkpt lat="46.4394" lon="6.09348">
        <ele>1350.8</ele>
        <time>2012-08-21T16:36:35.000Z</time>
      </trkpt>
      <trkpt lat="46.43936" lon="6.09355">
        <ele>1350.3</ele>
        <time>2012-08-21T16:36:38.000Z</time>
      </trkpt>
      <trkpt lat="46.43932" lon="6.09359">
        <ele>1351.8</ele>
        <time>2012-08-21T16:36:41.000Z</time>
      </trkpt>
      <trkpt lat="46.43926" lon="6.09361">
        <ele>1352.8</ele>
        <time>2012-08-21T16:36:44.000Z</time>
      </trkpt>
      <trkpt lat="46.43921" lon="6.09364">
        <ele>1352.5</ele>
        <time>2012-08-21T16:36:48.000Z</time>
      </trkpt>
      <trkpt lat="46.43918" lon="6.09371">
        <ele>1354.2</ele>
        <time>2012-08-21T16:36:53.000Z</time>
      </trkpt>
      <trkpt lat="46.43916" lon="6.09378">
        <ele>1358</ele>
        <time>2012-08-21T16:36:57.000Z</time>
      </trkpt>
      <trkpt lat="46.43915" lon="6.09385">
        <ele>1360.5</ele>
        <time>2012-08-21T16:37:00.000Z</time>
      </trkpt>
      <trkpt lat="46.43912" lon="6.0939">
        <ele>1364</ele>
        <time>2012-08-21T16:37:04.000Z</time>
      </trkpt>
      <trkpt lat="46.4391" lon="6.09396">
        <ele>1363.6</ele>
        <time>2012-08-21T16:37:09.000Z</time>
      </trkpt>
      <trkpt lat="46.43908" lon="6.09403">
        <ele>1365.4</ele>
        <time>2012-08-21T16:37:13.000Z</time>
      </trkpt>
      <trkpt lat="46.43905" lon="6.09409">
        <ele>1363.3</ele>
        <time>2012-08-21T16:37:17.000Z</time>
      </trkpt>
      <trkpt lat="46.439" lon="6.09413">
        <ele>1366.2</ele>
        <time>2012-08-21T16:37:21.000Z</time>
      </trkpt>
      <trkpt lat="46.43897" lon="6.09417">
        <ele>1366.3</ele>
        <time>2012-08-21T16:37:24.084Z</time>
      </trkpt>
      <trkpt lat="46.43893" lon="6.09421">
        <ele>1367.3</ele>
        <time>2012-08-21T16:37:27.000Z</time>
      </trkpt>
      <trkpt lat="46.43891" lon="6.09427">
        <ele>1369</ele>
        <time>2012-08-21T16:37:33.000Z</time>
      </trkpt>
      <trkpt lat="46.43893" lon="6.09434">
        <ele>1371.3</ele>
        <time>2012-08-21T16:37:39.000Z</time>
      </trkpt>
      <trkpt lat="46.43889" lon="6.0944">
        <ele>1373.5</ele>
        <time>2012-08-21T16:37:44.000Z</time>
      </trkpt>
      <trkpt lat="46.43884" lon="6.09442">
        <ele>1374.7</ele>
        <time>2012-08-21T16:37:47.000Z</time>
      </trkpt>
      <trkpt lat="46.4388" lon="6.09445">
        <ele>1378</ele>
        <time>2012-08-21T16:37:50.000Z</time>
      </trkpt>
      <trkpt lat="46.43876" lon="6.09447">
        <ele>1379.9</ele>
        <time>2012-08-21T16:37:53.000Z</time>
      </trkpt>
      <trkpt lat="46.43871" lon="6.09451">
        <ele>1380.6</ele>
        <time>2012-08-21T16:37:57.000Z</time>
      </trkpt>
      <trkpt lat="46.43866" lon="6.09451">
        <ele>1381.7</ele>
        <time>2012-08-21T16:38:02.000Z</time>
      </trkpt>
      <trkpt lat="46.43861" lon="6.09451">
        <ele>1384</ele>
        <time>2012-08-21T16:38:05.000Z</time>
      </trkpt>
      <trkpt lat="46.43856" lon="6.09451">
        <ele>1384.8</ele>
        <time>2012-08-21T16:38:09.000Z</time>
      </trkpt>
      <trkpt lat="46.43851" lon="6.09454">
        <ele>1388</ele>
        <time>2012-08-21T16:38:15.000Z</time>
      </trkpt>
      <trkpt lat="46.43846" lon="6.09457">
        <ele>1391.9</ele>
        <time>2012-08-21T16:38:20.000Z</time>
      </trkpt>
      <trkpt lat="46.43842" lon="6.09459">
        <ele>1392.4</ele>
        <time>2012-08-21T16:38:24.092Z</time>
      </trkpt>
      <trkpt lat="46.43837" lon="6.09461">
        <ele>1393.6</ele>
        <time>2012-08-21T16:38:29.000Z</time>
      </trkpt>
      <trkpt lat="46.43833" lon="6.09462">
        <ele>1396.6</ele>
        <time>2012-08-21T16:38:35.000Z</time>
      </trkpt>
      <trkpt lat="46.43828" lon="6.09466">
        <ele>1397.7</ele>
        <time>2012-08-21T16:38:40.000Z</time>
      </trkpt>
      <trkpt lat="46.43823" lon="6.09471">
        <ele>1399.8</ele>
        <time>2012-08-21T16:38:43.000Z</time>
      </trkpt>
      <trkpt lat="46.43818" lon="6.09476">
        <ele>1400.4</ele>
        <time>2012-08-21T16:38:46.000Z</time>
      </trkpt>
      <trkpt lat="46.43812" lon="6.09481">
        <ele>1400.9</ele>
        <time>2012-08-21T16:38:49.000Z</time>
      </trkpt>
      <trkpt lat="46.43807" lon="6.09484">
        <ele>1402.6</ele>
        <time>2012-08-21T16:38:52.000Z</time>
      </trkpt>
      <trkpt lat="46.43802" lon="6.09486">
        <ele>1402.4</ele>
        <time>2012-08-21T16:38:55.000Z</time>
      </trkpt>
      <trkpt lat="46.43797" lon="6.09489">
        <ele>1403.4</ele>
        <time>2012-08-21T16:38:58.000Z</time>
      </trkpt>
      <trkpt lat="46.43792" lon="6.09493">
        <ele>1404.9</ele>
        <time>2012-08-21T16:39:01.000Z</time>
      </trkpt>
      <trkpt lat="46.43789" lon="6.09498">
        <ele>1405.9</ele>
        <time>2012-08-21T16:39:04.000Z</time>
      </trkpt>
      <trkpt lat="46.43785" lon="6.09503">
        <ele>1407.4</ele>
        <time>2012-08-21T16:39:07.000Z</time>
      </trkpt>
      <trkpt lat="46.43781" lon="6.09508">
        <ele>1408.2</ele>
        <time>2012-08-21T16:39:10.000Z</time>
      </trkpt>
      <trkpt lat="46.43777" lon="6.09512">
        <ele>1409.9</ele>
        <time>2012-08-21T16:39:13.000Z</time>
      </trkpt>
      <trkpt lat="46.43773" lon="6.09516">
        <ele>1411</ele>
        <time>2012-08-21T16:39:16.000Z</time>
      </trkpt>
      <trkpt lat="46.4377" lon="6.0952">
        <ele>1411.8</ele>
        <time>2012-08-21T16:39:19.000Z</time>
      </trkpt>
      <trkpt lat="46.43766" lon="6.09526">
        <ele>1413.6</ele>
        <time>2012-08-21T16:39:23.000Z</time>
      </trkpt>
      <trkpt lat="46.43762" lon="6.0953">
        <ele>1413.6</ele>
        <time>2012-08-21T16:39:27.000Z</time>
      </trkpt>
      <trkpt lat="46.4376" lon="6.09537">
        <ele>1416.8</ele>
        <time>2012-08-21T16:39:35.000Z</time>
      </trkpt>
      <trkpt lat="46.43757" lon="6.09542">
        <ele>1419.2</ele>
        <time>2012-08-21T16:39:42.000Z</time>
      </trkpt>
      <trkpt lat="46.43752" lon="6.09544">
        <ele>1420.3</ele>
        <time>2012-08-21T16:39:46.000Z</time>
      </trkpt>
      <trkpt lat="46.43748" lon="6.09547">
        <ele>1422.3</ele>
        <time>2012-08-21T16:39:51.000Z</time>
      </trkpt>
      <trkpt lat="46.43744" lon="6.09551">
        <ele>1422.2</ele>
        <time>2012-08-21T16:39:57.000Z</time>
      </trkpt>
      <trkpt lat="46.4374" lon="6.09555">
        <ele>1422.4</ele>
        <time>2012-08-21T16:40:02.000Z</time>
      </trkpt>
      <trkpt lat="46.43736" lon="6.0956">
        <ele>1424.1</ele>
        <time>2012-08-21T16:40:06.000Z</time>
      </trkpt>
      <trkpt lat="46.43734" lon="6.09565">
        <ele>1425.9</ele>
        <time>2012-08-21T16:40:14.000Z</time>
      </trkpt>
      <trkpt lat="46.43732" lon="6.09571">
        <ele>1426.9</ele>
        <time>2012-08-21T16:40:21.000Z</time>
      </trkpt>
      <trkpt lat="46.43727" lon="6.09572">
        <ele>1428</ele>
        <time>2012-08-21T16:40:26.000Z</time>
      </trkpt>
      <trkpt lat="46.43722" lon="6.09571">
        <ele>1429.4</ele>
        <time>2012-08-21T16:40:30.000Z</time>
      </trkpt>
      <trkpt lat="46.43717" lon="6.09573">
        <ele>1431</ele>
        <time>2012-08-21T16:40:38.000Z</time>
      </trkpt>
      <trkpt lat="46.43712" lon="6.09579">
        <ele>1435.6</ele>
        <time>2012-08-21T16:40:42.000Z</time>
      </trkpt>
      <trkpt lat="46.43708" lon="6.09583">
        <ele>1435.2</ele>
        <time>2012-08-21T16:40:46.000Z</time>
      </trkpt>
      <trkpt lat="46.43704" lon="6.09587">
        <ele>1437.5</ele>
        <time>2012-08-21T16:40:50.000Z</time>
      </trkpt>
      <trkpt lat="46.43701" lon="6.09592">
        <ele>1437.6</ele>
        <time>2012-08-21T16:40:55.000Z</time>
      </trkpt>
      <trkpt lat="46.43696" lon="6.09596">
        <ele>1439</ele>
        <time>2012-08-21T16:41:00.000Z</time>
      </trkpt>
      <trkpt lat="46.43692" lon="6.09598">
        <ele>1440.8</ele>
        <time>2012-08-21T16:41:04.000Z</time>
      </trkpt>
      <trkpt lat="46.43687" lon="6.096">
        <ele>1442</ele>
        <time>2012-08-21T16:41:10.000Z</time>
      </trkpt>
      <trkpt lat="46.43685" lon="6.09605">
        <ele>1444</ele>
        <time>2012-08-21T16:41:17.000Z</time>
      </trkpt>
      <trkpt lat="46.43681" lon="6.09611">
        <ele>1447.9</ele>
        <time>2012-08-21T16:41:22.000Z</time>
      </trkpt>
      <trkpt lat="46.43678" lon="6.09615">
        <ele>1451.7</ele>
        <time>2012-08-21T16:41:29.000Z</time>
      </trkpt>
      <trkpt lat="46.43674" lon="6.0962">
        <ele>1455.1</ele>
        <time>2012-08-21T16:41:35.000Z</time>
      </trkpt>
      <trkpt lat="46.4367" lon="6.09624">
        <ele>1455.8</ele>
        <time>2012-08-21T16:41:39.000Z</time>
      </trkpt>
      <trkpt lat="46.43667" lon="6.0963">
        <ele>1458.8</ele>
        <time>2012-08-21T16:41:45.000Z</time>
      </trkpt>
      <trkpt lat="46.43663" lon="6.09632">
        <ele>1459.3</ele>
        <time>2012-08-21T16:41:49.000Z</time>
      </trkpt>
      <trkpt lat="46.4366" lon="6.09641">
        <ele>1461.5</ele>
        <time>2012-08-21T16:42:36.000Z</time>
      </trkpt>
      <trkpt lat="46.43658" lon="6.09648">
        <ele>1462.3</ele>
        <time>2012-08-21T16:42:38.000Z</time>
      </trkpt>
      <trkpt lat="46.43656" lon="6.09654">
        <ele>1463.2</ele>
        <time>2012-08-21T16:42:40.000Z</time>
      </trkpt>
      <trkpt lat="46.43652" lon="6.09659">
        <ele>1464.5</ele>
        <time>2012-08-21T16:42:43.000Z</time>
      </trkpt>
      <trkpt lat="46.43648" lon="6.09662">
        <ele>1463</ele>
        <time>2012-08-21T16:42:46.000Z</time>
      </trkpt>
      <trkpt lat="46.43643" lon="6.09665">
        <ele>1462.7</ele>
        <time>2012-08-21T16:42:49.000Z</time>
      </trkpt>
      <trkpt lat="46.43638" lon="6.09669">
        <ele>1463.5</ele>
        <time>2012-08-21T16:42:52.000Z</time>
      </trkpt>
      <trkpt lat="46.43634" lon="6.09672">
        <ele>1466</ele>
        <time>2012-08-21T16:42:55.000Z</time>
      </trkpt>
      <trkpt lat="46.4363" lon="6.09679">
        <ele>1466.4</ele>
        <time>2012-08-21T16:42:59.000Z</time>
      </trkpt>
      <trkpt lat="46.43628" lon="6.09685">
        <ele>1466.1</ele>
        <time>2012-08-21T16:43:04.000Z</time>
      </trkpt>
      <trkpt lat="46.43623" lon="6.0969">
        <ele>1465.8</ele>
        <time>2012-08-21T16:43:14.000Z</time>
      </trkpt>
      <trkpt lat="46.43618" lon="6.09695">
        <ele>1467</ele>
        <time>2012-08-21T16:43:17.000Z</time>
      </trkpt>
      <trkpt lat="46.43615" lon="6.09699">
        <ele>1467.9</ele>
        <time>2012-08-21T16:43:19.000Z</time>
      </trkpt>
      <trkpt lat="46.43611" lon="6.09704">
        <ele>1468</ele>
        <time>2012-08-21T16:43:21.000Z</time>
      </trkpt>
      <trkpt lat="46.43607" lon="6.09708">
        <ele>1469</ele>
        <time>2012-08-21T16:43:24.152Z</time>
      </trkpt>
      <trkpt lat="46.43603" lon="6.09712">
        <ele>1471</ele>
        <time>2012-08-21T16:43:28.000Z</time>
      </trkpt>
      <trkpt lat="46.43599" lon="6.09716">
        <ele>1474.1</ele>
        <time>2012-08-21T16:43:32.000Z</time>
      </trkpt>
      <trkpt lat="46.43594" lon="6.0972">
        <ele>1474.2</ele>
        <time>2012-08-21T16:43:36.000Z</time>
      </trkpt>
      <trkpt lat="46.4359" lon="6.09724">
        <ele>1475.3</ele>
        <time>2012-08-21T16:43:39.000Z</time>
      </trkpt>
      <trkpt lat="46.43586" lon="6.09728">
        <ele>1476</ele>
        <time>2012-08-21T16:43:42.000Z</time>
      </trkpt>
      <trkpt lat="46.43582" lon="6.09732">
        <ele>1475.8</ele>
        <time>2012-08-21T16:43:45.000Z</time>
      </trkpt>
      <trkpt lat="46.43578" lon="6.09739">
        <ele>1475.3</ele>
        <time>2012-08-21T16:43:48.000Z</time>
      </trkpt>
      <trkpt lat="46.43575" lon="6.09744">
        <ele>1475.7</ele>
        <time>2012-08-21T16:43:51.000Z</time>
      </trkpt>
      <trkpt lat="46.4357" lon="6.09749">
        <ele>1477.3</ele>
        <time>2012-08-21T16:43:57.000Z</time>
      </trkpt>
      <trkpt lat="46.43565" lon="6.09754">
        <ele>1477.6</ele>
        <time>2012-08-21T16:44:00.000Z</time>
      </trkpt>
      <trkpt lat="46.43561" lon="6.09758">
        <ele>1480.3</ele>
        <time>2012-08-21T16:44:02.000Z</time>
      </trkpt>
      <trkpt lat="46.43556" lon="6.09764">
        <ele>1480.6</ele>
        <time>2012-08-21T16:44:04.000Z</time>
      </trkpt>
      <trkpt lat="46.43551" lon="6.0977">
        <ele>1480.1</ele>
        <time>2012-08-21T16:44:06.000Z</time>
      </trkpt>
      <trkpt lat="46.43546" lon="6.09774">
        <ele>1481.8</ele>
        <time>2012-08-21T16:44:08.000Z</time>
      </trkpt>
      <trkpt lat="46.43543" lon="6.09778">
        <ele>1482.9</ele>
        <time>2012-08-21T16:44:10.000Z</time>
      </trkpt>
      <trkpt lat="46.43538" lon="6.09782">
        <ele>1484.8</ele>
        <time>2012-08-21T16:44:12.000Z</time>
      </trkpt>
      <trkpt lat="46.43534" lon="6.09786">
        <ele>1485</ele>
        <time>2012-08-21T16:44:14.000Z</time>
      </trkpt>
      <trkpt lat="46.43529" lon="6.0979">
        <ele>1485</ele>
        <time>2012-08-21T16:44:17.000Z</time>
      </trkpt>
      <trkpt lat="46.43524" lon="6.09792">
        <ele>1484.4</ele>
        <time>2012-08-21T16:44:20.000Z</time>
      </trkpt>
      <trkpt lat="46.43519" lon="6.09798">
        <ele>1484</ele>
        <time>2012-08-21T16:44:23.000Z</time>
      </trkpt>
      <trkpt lat="46.43513" lon="6.09805">
        <ele>1481.4</ele>
        <time>2012-08-21T16:44:25.000Z</time>
      </trkpt>
      <trkpt lat="46.43508" lon="6.09813">
        <ele>1481.6</ele>
        <time>2012-08-21T16:44:27.000Z</time>
      </trkpt>
      <trkpt lat="46.43502" lon="6.0982">
        <ele>1482.1</ele>
        <time>2012-08-21T16:44:29.000Z</time>
      </trkpt>
      <trkpt lat="46.43498" lon="6.09826">
        <ele>1481.9</ele>
        <time>2012-08-21T16:44:31.000Z</time>
      </trkpt>
      <trkpt lat="46.43494" lon="6.09831">
        <ele>1483.1</ele>
        <time>2012-08-21T16:44:33.000Z</time>
      </trkpt>
      <trkpt lat="46.43489" lon="6.09836">
        <ele>1485.2</ele>
        <time>2012-08-21T16:44:36.000Z</time>
      </trkpt>
      <trkpt lat="46.43485" lon="6.09842">
        <ele>1488.3</ele>
        <time>2012-08-21T16:44:40.000Z</time>
      </trkpt>
      <trkpt lat="46.43482" lon="6.09848">
        <ele>1490.6</ele>
        <time>2012-08-21T16:44:43.000Z</time>
      </trkpt>
      <trkpt lat="46.43476" lon="6.09852">
        <ele>1491.2</ele>
        <time>2012-08-21T16:44:46.000Z</time>
      </trkpt>
      <trkpt lat="46.43472" lon="6.09854">
        <ele>1492.1</ele>
        <time>2012-08-21T16:44:48.000Z</time>
      </trkpt>
      <trkpt lat="46.43466" lon="6.09859">
        <ele>1492</ele>
        <time>2012-08-21T16:44:51.000Z</time>
      </trkpt>
      <trkpt lat="46.43461" lon="6.09864">
        <ele>1493.5</ele>
        <time>2012-08-21T16:44:54.000Z</time>
      </trkpt>
      <trkpt lat="46.43456" lon="6.0987">
        <ele>1493.3</ele>
        <time>2012-08-21T16:44:57.000Z</time>
      </trkpt>
      <trkpt lat="46.43451" lon="6.09874">
        <ele>1497.7</ele>
        <time>2012-08-21T16:45:00.000Z</time>
      </trkpt>
      <trkpt lat="46.43446" lon="6.09876">
        <ele>1499.3</ele>
        <time>2012-08-21T16:45:02.000Z</time>
      </trkpt>
      <trkpt lat="46.43441" lon="6.09881">
        <ele>1501.1</ele>
        <time>2012-08-21T16:45:05.000Z</time>
      </trkpt>
      <trkpt lat="46.43434" lon="6.09885">
        <ele>1503.2</ele>
        <time>2012-08-21T16:45:08.000Z</time>
      </trkpt>
      <trkpt lat="46.43428" lon="6.09888">
        <ele>1508.2</ele>
        <time>2012-08-21T16:45:11.000Z</time>
      </trkpt>
      <trkpt lat="46.43422" lon="6.09891">
        <ele>1514.3</ele>
        <time>2012-08-21T16:45:14.000Z</time>
      </trkpt>
      <trkpt lat="46.43417" lon="6.09894">
        <ele>1514.6</ele>
        <time>2012-08-21T16:45:17.000Z</time>
      </trkpt>
      <trkpt lat="46.43414" lon="6.09899">
        <ele>1514.6</ele>
        <time>2012-08-21T16:45:20.000Z</time>
      </trkpt>
      <trkpt lat="46.43412" lon="6.09906">
        <ele>1514.1</ele>
        <time>2012-08-21T16:45:25.000Z</time>
      </trkpt>
      <trkpt lat="46.43408" lon="6.09911">
        <ele>1513.5</ele>
        <time>2012-08-21T16:45:34.000Z</time>
      </trkpt>
      <trkpt lat="46.43404" lon="6.09914">
        <ele>1513</ele>
        <time>2012-08-21T16:45:40.000Z</time>
      </trkpt>
      <trkpt lat="46.43399" lon="6.09918">
        <ele>1512.4</ele>
        <time>2012-08-21T16:45:46.000Z</time>
      </trkpt>
      <trkpt lat="46.43395" lon="6.09922">
        <ele>1514.1</ele>
        <time>2012-08-21T16:45:49.000Z</time>
      </trkpt>
      <trkpt lat="46.43391" lon="6.09928">
        <ele>1514.4</ele>
        <time>2012-08-21T16:45:54.000Z</time>
      </trkpt>
      <trkpt lat="46.43388" lon="6.09933">
        <ele>1514.8</ele>
        <time>2012-08-21T16:45:59.000Z</time>
      </trkpt>
      <trkpt lat="46.43385" lon="6.0994">
        <ele>1515</ele>
        <time>2012-08-21T16:46:04.000Z</time>
      </trkpt>
      <trkpt lat="46.43383" lon="6.09946">
        <ele>1517.2</ele>
        <time>2012-08-21T16:46:08.000Z</time>
      </trkpt>
      <trkpt lat="46.4338" lon="6.09951">
        <ele>1516.6</ele>
        <time>2012-08-21T16:46:12.000Z</time>
      </trkpt>
      <trkpt lat="46.43377" lon="6.09956">
        <ele>1517</ele>
        <time>2012-08-21T16:46:16.000Z</time>
      </trkpt>
      <trkpt lat="46.43373" lon="6.09963">
        <ele>1518.7</ele>
        <time>2012-08-21T16:46:20.000Z</time>
      </trkpt>
      <trkpt lat="46.4337" lon="6.0997">
        <ele>1519.8</ele>
        <time>2012-08-21T16:46:24.202Z</time>
      </trkpt>
      <trkpt lat="46.43366" lon="6.09974">
        <ele>1523.5</ele>
        <time>2012-08-21T16:46:31.000Z</time>
      </trkpt>
      <trkpt lat="46.43363" lon="6.0998">
        <ele>1524.6</ele>
        <time>2012-08-21T16:46:37.000Z</time>
      </trkpt>
      <trkpt lat="46.4336" lon="6.09986">
        <ele>1527.2</ele>
        <time>2012-08-21T16:46:42.000Z</time>
      </trkpt>
      <trkpt lat="46.43357" lon="6.09991">
        <ele>1529.1</ele>
        <time>2012-08-21T16:46:46.000Z</time>
      </trkpt>
      <trkpt lat="46.43354" lon="6.09998">
        <ele>1529</ele>
        <time>2012-08-21T16:46:50.000Z</time>
      </trkpt>
      <trkpt lat="46.43352" lon="6.10004">
        <ele>1528.8</ele>
        <time>2012-08-21T16:46:53.000Z</time>
      </trkpt>
      <trkpt lat="46.4335" lon="6.1001">
        <ele>1530.4</ele>
        <time>2012-08-21T16:46:56.000Z</time>
      </trkpt>
      <trkpt lat="46.43347" lon="6.10017">
        <ele>1531.7</ele>
        <time>2012-08-21T16:46:59.000Z</time>
      </trkpt>
      <trkpt lat="46.43345" lon="6.10024">
        <ele>1531.7</ele>
        <time>2012-08-21T16:47:03.000Z</time>
      </trkpt>
      <trkpt lat="46.43343" lon="6.1003">
        <ele>1534.4</ele>
        <time>2012-08-21T16:47:07.000Z</time>
      </trkpt>
      <trkpt lat="46.4334" lon="6.10037">
        <ele>1534.4</ele>
        <time>2012-08-21T16:47:12.000Z</time>
      </trkpt>
      <trkpt lat="46.43337" lon="6.10042">
        <ele>1534.9</ele>
        <time>2012-08-21T16:47:16.000Z</time>
      </trkpt>
      <trkpt lat="46.43332" lon="6.10048">
        <ele>1536.5</ele>
        <time>2012-08-21T16:47:20.000Z</time>
      </trkpt>
      <trkpt lat="46.43329" lon="6.10052">
        <ele>1536.6</ele>
        <time>2012-08-21T16:47:23.000Z</time>
      </trkpt>
      <trkpt lat="46.43325" lon="6.10059">
        <ele>1537.3</ele>
        <time>2012-08-21T16:47:27.000Z</time>
      </trkpt>
      <trkpt lat="46.43322" lon="6.10066">
        <ele>1537</ele>
        <time>2012-08-21T16:47:30.000Z</time>
      </trkpt>
      <trkpt lat="46.43319" lon="6.10072">
        <ele>1538.1</ele>
        <time>2012-08-21T16:47:33.000Z</time>
      </trkpt>
      <trkpt lat="46.43316" lon="6.10077">
        <ele>1540.2</ele>
        <time>2012-08-21T16:47:37.000Z</time>
      </trkpt>
      <trkpt lat="46.43314" lon="6.10084">
        <ele>1542.1</ele>
        <time>2012-08-21T16:47:42.000Z</time>
      </trkpt>
      <trkpt lat="46.43313" lon="6.10092">
        <ele>1543.8</ele>
        <time>2012-08-21T16:47:47.000Z</time>
      </trkpt>
      <trkpt lat="46.4331" lon="6.10099">
        <ele>1544.9</ele>
        <time>2012-08-21T16:47:51.000Z</time>
      </trkpt>
      <trkpt lat="46.43309" lon="6.10106">
        <ele>1545.5</ele>
        <time>2012-08-21T16:47:55.000Z</time>
      </trkpt>
      <trkpt lat="46.43309" lon="6.10114">
        <ele>1548.7</ele>
        <time>2012-08-21T16:47:59.000Z</time>
      </trkpt>
      <trkpt lat="46.43309" lon="6.10121">
        <ele>1550.2</ele>
        <time>2012-08-21T16:48:03.000Z</time>
      </trkpt>
      <trkpt lat="46.43309" lon="6.10128">
        <ele>1552.4</ele>
        <time>2012-08-21T16:48:08.000Z</time>
      </trkpt>
      <trkpt lat="46.43309" lon="6.10136">
        <ele>1554.3</ele>
        <time>2012-08-21T16:48:13.000Z</time>
      </trkpt>
      <trkpt lat="46.43308" lon="6.10143">
        <ele>1554.2</ele>
        <time>2012-08-21T16:48:17.000Z</time>
      </trkpt>
      <trkpt lat="46.43306" lon="6.10149">
        <ele>1554.3</ele>
        <time>2012-08-21T16:48:21.000Z</time>
      </trkpt>
      <trkpt lat="46.43302" lon="6.10154">
        <ele>1555.7</ele>
        <time>2012-08-21T16:48:26.000Z</time>
      </trkpt>
      <trkpt lat="46.43298" lon="6.1016">
        <ele>1555.7</ele>
        <time>2012-08-21T16:48:30.000Z</time>
      </trkpt>
      <trkpt lat="46.43294" lon="6.10166">
        <ele>1554.7</ele>
        <time>2012-08-21T16:48:34.000Z</time>
      </trkpt>
      <trkpt lat="46.4329" lon="6.1017">
        <ele>1554.7</ele>
        <time>2012-08-21T16:48:37.000Z</time>
      </trkpt>
      <trkpt lat="46.4329" lon="6.10176">
        <ele>1556.8</ele>
        <time>2012-08-21T16:48:40.000Z</time>
      </trkpt>
      <trkpt lat="46.43291" lon="6.10184">
        <ele>1558.3</ele>
        <time>2012-08-21T16:48:43.000Z</time>
      </trkpt>
      <trkpt lat="46.43293" lon="6.1019">
        <ele>1557.9</ele>
        <time>2012-08-21T16:48:46.000Z</time>
      </trkpt>
      <trkpt lat="46.43292" lon="6.10197">
        <ele>1557.9</ele>
        <time>2012-08-21T16:48:59.000Z</time>
      </trkpt>
      <trkpt lat="46.43289" lon="6.10205">
        <ele>1559.7</ele>
        <time>2012-08-21T16:49:02.000Z</time>
      </trkpt>
      <trkpt lat="46.43285" lon="6.10214">
        <ele>1560.7</ele>
        <time>2012-08-21T16:49:05.000Z</time>
      </trkpt>
      <trkpt lat="46.43281" lon="6.1022">
        <ele>1561.4</ele>
        <time>2012-08-21T16:49:08.000Z</time>
      </trkpt>
      <trkpt lat="46.43278" lon="6.10226">
        <ele>1561.1</ele>
        <time>2012-08-21T16:49:11.000Z</time>
      </trkpt>
      <trkpt lat="46.43276" lon="6.10233">
        <ele>1562.6</ele>
        <time>2012-08-21T16:49:14.000Z</time>
      </trkpt>
      <trkpt lat="46.43274" lon="6.1024">
        <ele>1564.1</ele>
        <time>2012-08-21T16:49:18.000Z</time>
      </trkpt>
      <trkpt lat="46.43273" lon="6.10247">
        <ele>1564.2</ele>
        <time>2012-08-21T16:49:22.000Z</time>
      </trkpt>
      <trkpt lat="46.43272" lon="6.10254">
        <ele>1564.3</ele>
        <time>2012-08-21T16:49:25.000Z</time>
      </trkpt>
      <trkpt lat="46.43269" lon="6.1026">
        <ele>1564.8</ele>
        <time>2012-08-21T16:49:30.000Z</time>
      </trkpt>
      <trkpt lat="46.43266" lon="6.10266">
        <ele>1565.2</ele>
        <time>2012-08-21T16:49:34.000Z</time>
      </trkpt>
      <trkpt lat="46.43263" lon="6.10272">
        <ele>1564.6</ele>
        <time>2012-08-21T16:49:38.000Z</time>
      </trkpt>
      <trkpt lat="46.4326" lon="6.10278">
        <ele>1569.7</ele>
        <time>2012-08-21T16:49:43.000Z</time>
      </trkpt>
      <trkpt lat="46.43257" lon="6.10284">
        <ele>1573</ele>
        <time>2012-08-21T16:49:48.000Z</time>
      </trkpt>
      <trkpt lat="46.43255" lon="6.1029">
        <ele>1576.3</ele>
        <time>2012-08-21T16:49:54.000Z</time>
      </trkpt>
      <trkpt lat="46.43255" lon="6.10297">
        <ele>1579.8</ele>
        <time>2012-08-21T16:49:59.000Z</time>
      </trkpt>
      <trkpt lat="46.43255" lon="6.10304">
        <ele>1582.3</ele>
        <time>2012-08-21T16:50:03.000Z</time>
      </trkpt>
      <trkpt lat="46.43256" lon="6.10312">
        <ele>1584.4</ele>
        <time>2012-08-21T16:50:07.000Z</time>
      </trkpt>
      <trkpt lat="46.43257" lon="6.10318">
        <ele>1585.9</ele>
        <time>2012-08-21T16:50:10.000Z</time>
      </trkpt>
      <trkpt lat="46.43259" lon="6.10325">
        <ele>1590.1</ele>
        <time>2012-08-21T16:50:13.000Z</time>
      </trkpt>
      <trkpt lat="46.43262" lon="6.10331">
        <ele>1591.2</ele>
        <time>2012-08-21T16:50:16.000Z</time>
      </trkpt>
      <trkpt lat="46.43265" lon="6.10338">
        <ele>1592.6</ele>
        <time>2012-08-21T16:50:20.000Z</time>
      </trkpt>
      <trkpt lat="46.43262" lon="6.10343">
        <ele>1595.8</ele>
        <time>2012-08-21T16:50:27.000Z</time>
      </trkpt>
      <trkpt lat="46.43259" lon="6.10349">
        <ele>1602.5</ele>
        <time>2012-08-21T16:50:47.000Z</time>
      </trkpt>
      <trkpt lat="46.43257" lon="6.10356">
        <ele>1606.3</ele>
        <time>2012-08-21T16:56:49.000Z</time>
      </trkpt>
      <trkpt lat="46.43254" lon="6.10362">
        <ele>1605.2</ele>
        <time>2012-08-21T16:56:51.000Z</time>
      </trkpt>
      <trkpt lat="46.43249" lon="6.10368">
        <ele>1604.4</ele>
        <time>2012-08-21T16:56:53.000Z</time>
      </trkpt>
      <trkpt lat="46.43246" lon="6.10375">
        <ele>1604.9</ele>
        <time>2012-08-21T16:56:56.000Z</time>
      </trkpt>
      <trkpt lat="46.43242" lon="6.1038">
        <ele>1603.9</ele>
        <time>2012-08-21T16:57:01.000Z</time>
      </trkpt>
      <trkpt lat="46.43243" lon="6.10373">
        <ele>1602.1</ele>
        <time>2012-08-21T16:57:07.000Z</time>
      </trkpt>
      <trkpt lat="46.4324" lon="6.10378">
        <ele>1602</ele>
        <time>2012-08-21T16:57:14.000Z</time>
      </trkpt>
      <trkpt lat="46.43236" lon="6.10382">
        <ele>1601.6</ele>
        <time>2012-08-21T16:57:20.000Z</time>
      </trkpt>
      <trkpt lat="46.43241" lon="6.10382">
        <ele>1599</ele>
        <time>2012-08-21T16:57:27.000Z</time>
      </trkpt>
      <trkpt lat="46.43242" lon="6.10389">
        <ele>1598.7</ele>
        <time>2012-08-21T16:57:37.000Z</time>
      </trkpt>
      <trkpt lat="46.43242" lon="6.10396">
        <ele>1597.5</ele>
        <time>2012-08-21T16:57:41.000Z</time>
      </trkpt>
      <trkpt lat="46.43237" lon="6.10393">
        <ele>1596.4</ele>
        <time>2012-08-21T16:57:47.000Z</time>
      </trkpt>
      <trkpt lat="46.43231" lon="6.10392">
        <ele>1596.4</ele>
        <time>2012-08-21T16:57:51.000Z</time>
      </trkpt>
      <trkpt lat="46.43227" lon="6.10393">
        <ele>1595.7</ele>
        <time>2012-08-21T16:57:54.000Z</time>
      </trkpt>
      <trkpt lat="46.43221" lon="6.10392">
        <ele>1594.9</ele>
        <time>2012-08-21T16:57:58.000Z</time>
      </trkpt>
      <trkpt lat="46.43216" lon="6.1039">
        <ele>1592.7</ele>
        <time>2012-08-21T16:58:01.000Z</time>
      </trkpt>
      <trkpt lat="46.43211" lon="6.10389">
        <ele>1590.9</ele>
        <time>2012-08-21T16:58:05.000Z</time>
      </trkpt>
      <trkpt lat="46.43206" lon="6.10386">
        <ele>1590</ele>
        <time>2012-08-21T16:58:08.000Z</time>
      </trkpt>
      <trkpt lat="46.432" lon="6.10384">
        <ele>1589.1</ele>
        <time>2012-08-21T16:58:12.000Z</time>
      </trkpt>
      <trkpt lat="46.43194" lon="6.10382">
        <ele>1588.3</ele>
        <time>2012-08-21T16:58:16.000Z</time>
      </trkpt>
      <trkpt lat="46.43189" lon="6.10383">
        <ele>1587.3</ele>
        <time>2012-08-21T16:58:20.000Z</time>
      </trkpt>
      <trkpt lat="46.43185" lon="6.10388">
        <ele>1584.4</ele>
        <time>2012-08-21T16:58:24.400Z</time>
      </trkpt>
      <trkpt lat="46.43185" lon="6.10397">
        <ele>1583.5</ele>
        <time>2012-08-21T16:58:28.000Z</time>
      </trkpt>
      <trkpt lat="46.43183" lon="6.10404">
        <ele>1582</ele>
        <time>2012-08-21T16:58:31.000Z</time>
      </trkpt>
      <trkpt lat="46.43178" lon="6.104">
        <ele>1577.1</ele>
        <time>2012-08-21T16:58:38.000Z</time>
      </trkpt>
      <trkpt lat="46.43173" lon="6.104">
        <ele>1569.6</ele>
        <time>2012-08-21T16:58:45.000Z</time>
      </trkpt>
      <trkpt lat="46.43168" lon="6.10398">
        <ele>1567.2</ele>
        <time>2012-08-21T16:58:50.000Z</time>
      </trkpt>
      <trkpt lat="46.43163" lon="6.10394">
        <ele>1565.9</ele>
        <time>2012-08-21T16:58:54.000Z</time>
      </trkpt>
      <trkpt lat="46.43096" lon="6.10428">
        <ele>1564</ele>
        <time>2012-08-21T16:59:40.000Z</time>
      </trkpt>
      <trkpt lat="46.43091" lon="6.1043">
        <ele>1564</ele>
        <time>2012-08-21T16:59:44.000Z</time>
      </trkpt>
      <trkpt lat="46.43077" lon="6.10403">
        <ele>1563.7</ele>
        <time>2012-08-21T16:59:49.000Z</time>
      </trkpt>
      <trkpt lat="46.43071" lon="6.10393">
        <ele>1562.9</ele>
        <time>2012-08-21T16:59:50.000Z</time>
      </trkpt>
      <trkpt lat="46.43068" lon="6.10386">
        <ele>1562.8</ele>
        <time>2012-08-21T16:59:51.000Z</time>
      </trkpt>
      <trkpt lat="46.43074" lon="6.10385">
        <ele>1548.6</ele>
        <time>2012-08-21T16:59:59.000Z</time>
      </trkpt>
      <trkpt lat="46.43079" lon="6.10385">
        <ele>1547.1</ele>
        <time>2012-08-21T17:00:02.000Z</time>
      </trkpt>
      <trkpt lat="46.43074" lon="6.10387">
        <ele>1543.8</ele>
        <time>2012-08-21T17:00:23.000Z</time>
      </trkpt>
      <trkpt lat="46.4307" lon="6.10393">
        <ele>1544.5</ele>
        <time>2012-08-21T17:00:25.000Z</time>
      </trkpt>
      <trkpt lat="46.43066" lon="6.10398">
        <ele>1544.4</ele>
        <time>2012-08-21T17:00:27.000Z</time>
      </trkpt>
      <trkpt lat="46.43063" lon="6.10406">
        <ele>1545</ele>
        <time>2012-08-21T17:00:29.000Z</time>
      </trkpt>
      <trkpt lat="46.43058" lon="6.10408">
        <ele>1542</ele>
        <time>2012-08-21T17:00:39.000Z</time>
      </trkpt>
      <trkpt lat="46.43052" lon="6.10412">
        <ele>1541.3</ele>
        <time>2012-08-21T17:00:41.000Z</time>
      </trkpt>
      <trkpt lat="46.43046" lon="6.10415">
        <ele>1539.3</ele>
        <time>2012-08-21T17:00:43.000Z</time>
      </trkpt>
      <trkpt lat="46.43039" lon="6.10418">
        <ele>1537.9</ele>
        <time>2012-08-21T17:00:45.000Z</time>
      </trkpt>
      <trkpt lat="46.43032" lon="6.10421">
        <ele>1538.4</ele>
        <time>2012-08-21T17:00:47.000Z</time>
      </trkpt>
      <trkpt lat="46.43026" lon="6.10425">
        <ele>1537.4</ele>
        <time>2012-08-21T17:00:49.000Z</time>
      </trkpt>
      <trkpt lat="46.4302" lon="6.1043">
        <ele>1537</ele>
        <time>2012-08-21T17:00:51.000Z</time>
      </trkpt>
      <trkpt lat="46.43016" lon="6.10435">
        <ele>1536.6</ele>
        <time>2012-08-21T17:00:53.000Z</time>
      </trkpt>
      <trkpt lat="46.43011" lon="6.1044">
        <ele>1536.6</ele>
        <time>2012-08-21T17:00:55.000Z</time>
      </trkpt>
      <trkpt lat="46.43006" lon="6.10446">
        <ele>1532.5</ele>
        <time>2012-08-21T17:00:57.000Z</time>
      </trkpt>
      <trkpt lat="46.43004" lon="6.10452">
        <ele>1530.3</ele>
        <time>2012-08-21T17:00:59.000Z</time>
      </trkpt>
      <trkpt lat="46.43002" lon="6.10458">
        <ele>1527.6</ele>
        <time>2012-08-21T17:01:01.000Z</time>
      </trkpt>
      <trkpt lat="46.42999" lon="6.10466">
        <ele>1526.9</ele>
        <time>2012-08-21T17:01:04.000Z</time>
      </trkpt>
      <trkpt lat="46.42996" lon="6.10473">
        <ele>1528.1</ele>
        <time>2012-08-21T17:01:06.000Z</time>
      </trkpt>
      <trkpt lat="46.42992" lon="6.10478">
        <ele>1527.5</ele>
        <time>2012-08-21T17:01:08.000Z</time>
      </trkpt>
      <trkpt lat="46.42989" lon="6.10483">
        <ele>1526</ele>
        <time>2012-08-21T17:01:10.000Z</time>
      </trkpt>
      <trkpt lat="46.42987" lon="6.10489">
        <ele>1524.8</ele>
        <time>2012-08-21T17:01:12.000Z</time>
      </trkpt>
      <trkpt lat="46.42984" lon="6.10496">
        <ele>1521.9</ele>
        <time>2012-08-21T17:01:14.000Z</time>
      </trkpt>
      <trkpt lat="46.4298" lon="6.10501">
        <ele>1520</ele>
        <time>2012-08-21T17:01:16.000Z</time>
      </trkpt>
      <trkpt lat="46.42976" lon="6.10506">
        <ele>1517.5</ele>
        <time>2012-08-21T17:01:19.000Z</time>
      </trkpt>
      <trkpt lat="46.42971" lon="6.10509">
        <ele>1516.1</ele>
        <time>2012-08-21T17:01:22.000Z</time>
      </trkpt>
      <trkpt lat="46.42966" lon="6.1051">
        <ele>1515.1</ele>
        <time>2012-08-21T17:01:24.170Z</time>
      </trkpt>
      <trkpt lat="46.4296" lon="6.10513">
        <ele>1513.2</ele>
        <time>2012-08-21T17:01:27.000Z</time>
      </trkpt>
      <trkpt lat="46.42955" lon="6.10516">
        <ele>1511.8</ele>
        <time>2012-08-21T17:01:30.000Z</time>
      </trkpt>
      <trkpt lat="46.4295" lon="6.10519">
        <ele>1509.7</ele>
        <time>2012-08-21T17:01:33.000Z</time>
      </trkpt>
      <trkpt lat="46.42944" lon="6.10522">
        <ele>1508.2</ele>
        <time>2012-08-21T17:01:36.000Z</time>
      </trkpt>
      <trkpt lat="46.42939" lon="6.10524">
        <ele>1506.6</ele>
        <time>2012-08-21T17:01:44.000Z</time>
      </trkpt>
      <trkpt lat="46.42934" lon="6.10525">
        <ele>1506.1</ele>
        <time>2012-08-21T17:01:50.000Z</time>
      </trkpt>
      <trkpt lat="46.42928" lon="6.10528">
        <ele>1506</ele>
        <time>2012-08-21T17:01:54.000Z</time>
      </trkpt>
      <trkpt lat="46.42922" lon="6.10534">
        <ele>1503.9</ele>
        <time>2012-08-21T17:01:56.000Z</time>
      </trkpt>
      <trkpt lat="46.42915" lon="6.10538">
        <ele>1502.1</ele>
        <time>2012-08-21T17:01:58.000Z</time>
      </trkpt>
      <trkpt lat="46.42908" lon="6.10541">
        <ele>1501.8</ele>
        <time>2012-08-21T17:02:00.000Z</time>
      </trkpt>
      <trkpt lat="46.42903" lon="6.10545">
        <ele>1501.3</ele>
        <time>2012-08-21T17:02:02.000Z</time>
      </trkpt>
      <trkpt lat="46.42898" lon="6.10549">
        <ele>1500.2</ele>
        <time>2012-08-21T17:02:04.000Z</time>
      </trkpt>
      <trkpt lat="46.42894" lon="6.10553">
        <ele>1500</ele>
        <time>2012-08-21T17:02:06.000Z</time>
      </trkpt>
      <trkpt lat="46.4289" lon="6.10556">
        <ele>1499</ele>
        <time>2012-08-21T17:02:08.000Z</time>
      </trkpt>
      <trkpt lat="46.42886" lon="6.10561">
        <ele>1499.1</ele>
        <time>2012-08-21T17:02:10.000Z</time>
      </trkpt>
      <trkpt lat="46.4288" lon="6.10565">
        <ele>1499.2</ele>
        <time>2012-08-21T17:02:13.000Z</time>
      </trkpt>
      <trkpt lat="46.42875" lon="6.10568">
        <ele>1498.4</ele>
        <time>2012-08-21T17:02:15.000Z</time>
      </trkpt>
      <trkpt lat="46.42871" lon="6.10571">
        <ele>1498.3</ele>
        <time>2012-08-21T17:02:17.000Z</time>
      </trkpt>
      <trkpt lat="46.42867" lon="6.10574">
        <ele>1498.1</ele>
        <time>2012-08-21T17:02:19.000Z</time>
      </trkpt>
      <trkpt lat="46.42861" lon="6.10578">
        <ele>1498.6</ele>
        <time>2012-08-21T17:02:22.000Z</time>
      </trkpt>
      <trkpt lat="46.42857" lon="6.10584">
        <ele>1498</ele>
        <time>2012-08-21T17:02:25.000Z</time>
      </trkpt>
      <trkpt lat="46.42851" lon="6.10589">
        <ele>1497.9</ele>
        <time>2012-08-21T17:02:28.000Z</time>
      </trkpt>
      <trkpt lat="46.42846" lon="6.10592">
        <ele>1495.8</ele>
        <time>2012-08-21T17:02:32.000Z</time>
      </trkpt>
      <trkpt lat="46.42842" lon="6.10595">
        <ele>1493.5</ele>
        <time>2012-08-21T17:02:35.000Z</time>
      </trkpt>
      <trkpt lat="46.42838" lon="6.10601">
        <ele>1494.6</ele>
        <time>2012-08-21T17:02:37.000Z</time>
      </trkpt>
      <trkpt lat="46.42836" lon="6.10607">
        <ele>1493.1</ele>
        <time>2012-08-21T17:02:39.000Z</time>
      </trkpt>
      <trkpt lat="46.42832" lon="6.10613">
        <ele>1492.3</ele>
        <time>2012-08-21T17:02:42.000Z</time>
      </trkpt>
      <trkpt lat="46.42827" lon="6.10617">
        <ele>1493.1</ele>
        <time>2012-08-21T17:02:45.000Z</time>
      </trkpt>
      <trkpt lat="46.42821" lon="6.10619">
        <ele>1492</ele>
        <time>2012-08-21T17:02:48.000Z</time>
      </trkpt>
      <trkpt lat="46.42815" lon="6.1062">
        <ele>1490.5</ele>
        <time>2012-08-21T17:02:51.000Z</time>
      </trkpt>
      <trkpt lat="46.4281" lon="6.10623">
        <ele>1490</ele>
        <time>2012-08-21T17:02:55.000Z</time>
      </trkpt>
      <trkpt lat="46.42806" lon="6.10628">
        <ele>1489.4</ele>
        <time>2012-08-21T17:03:00.000Z</time>
      </trkpt>
      <trkpt lat="46.42802" lon="6.10633">
        <ele>1488.9</ele>
        <time>2012-08-21T17:03:02.000Z</time>
      </trkpt>
      <trkpt lat="46.42797" lon="6.10637">
        <ele>1487.4</ele>
        <time>2012-08-21T17:03:04.000Z</time>
      </trkpt>
      <trkpt lat="46.42791" lon="6.10638">
        <ele>1487</ele>
        <time>2012-08-21T17:03:06.000Z</time>
      </trkpt>
      <trkpt lat="46.42786" lon="6.1064">
        <ele>1487</ele>
        <time>2012-08-21T17:03:08.000Z</time>
      </trkpt>
      <trkpt lat="46.42781" lon="6.10643">
        <ele>1487.7</ele>
        <time>2012-08-21T17:03:10.000Z</time>
      </trkpt>
      <trkpt lat="46.42777" lon="6.1065">
        <ele>1487.7</ele>
        <time>2012-08-21T17:03:13.000Z</time>
      </trkpt>
      <trkpt lat="46.42772" lon="6.10655">
        <ele>1486.2</ele>
        <time>2012-08-21T17:03:16.000Z</time>
      </trkpt>
      <trkpt lat="46.42766" lon="6.10657">
        <ele>1486.6</ele>
        <time>2012-08-21T17:03:19.000Z</time>
      </trkpt>
      <trkpt lat="46.42762" lon="6.1066">
        <ele>1483.9</ele>
        <time>2012-08-21T17:03:21.000Z</time>
      </trkpt>
      <trkpt lat="46.42756" lon="6.10661">
        <ele>1483.7</ele>
        <time>2012-08-21T17:03:23.000Z</time>
      </trkpt>
      <trkpt lat="46.42751" lon="6.10661">
        <ele>1480.3</ele>
        <time>2012-08-21T17:03:25.000Z</time>
      </trkpt>
      <trkpt lat="46.42745" lon="6.10658">
        <ele>1480.3</ele>
        <time>2012-08-21T17:03:27.000Z</time>
      </trkpt>
      <trkpt lat="46.4274" lon="6.10655">
        <ele>1480.9</ele>
        <time>2012-08-21T17:03:29.000Z</time>
      </trkpt>
      <trkpt lat="46.42736" lon="6.1065">
        <ele>1480.8</ele>
        <time>2012-08-21T17:03:31.000Z</time>
      </trkpt>
      <trkpt lat="46.42734" lon="6.10642">
        <ele>1472.1</ele>
        <time>2012-08-21T17:03:33.000Z</time>
      </trkpt>
      <trkpt lat="46.42731" lon="6.10635">
        <ele>1468.7</ele>
        <time>2012-08-21T17:03:35.000Z</time>
      </trkpt>
      <trkpt lat="46.4273" lon="6.10628">
        <ele>1470.1</ele>
        <time>2012-08-21T17:03:37.000Z</time>
      </trkpt>
      <trkpt lat="46.42725" lon="6.10622">
        <ele>1470.4</ele>
        <time>2012-08-21T17:03:40.000Z</time>
      </trkpt>
      <trkpt lat="46.42719" lon="6.10623">
        <ele>1470.2</ele>
        <time>2012-08-21T17:03:43.000Z</time>
      </trkpt>
      <trkpt lat="46.42714" lon="6.10626">
        <ele>1470.6</ele>
        <time>2012-08-21T17:03:45.000Z</time>
      </trkpt>
      <trkpt lat="46.42707" lon="6.10631">
        <ele>1470.1</ele>
        <time>2012-08-21T17:03:47.000Z</time>
      </trkpt>
      <trkpt lat="46.42701" lon="6.10637">
        <ele>1469.2</ele>
        <time>2012-08-21T17:03:49.000Z</time>
      </trkpt>
      <trkpt lat="46.42694" lon="6.10642">
        <ele>1468.7</ele>
        <time>2012-08-21T17:03:51.000Z</time>
      </trkpt>
      <trkpt lat="46.42688" lon="6.10646">
        <ele>1469.8</ele>
        <time>2012-08-21T17:03:53.000Z</time>
      </trkpt>
      <trkpt lat="46.42682" lon="6.1065">
        <ele>1470.8</ele>
        <time>2012-08-21T17:03:55.000Z</time>
      </trkpt>
      <trkpt lat="46.42676" lon="6.10654">
        <ele>1470.3</ele>
        <time>2012-08-21T17:03:57.000Z</time>
      </trkpt>
      <trkpt lat="46.42669" lon="6.10657">
        <ele>1471.2</ele>
        <time>2012-08-21T17:03:59.000Z</time>
      </trkpt>
      <trkpt lat="46.42663" lon="6.10659">
        <ele>1471</ele>
        <time>2012-08-21T17:04:01.000Z</time>
      </trkpt>
      <trkpt lat="46.42657" lon="6.10659">
        <ele>1471.7</ele>
        <time>2012-08-21T17:04:03.000Z</time>
      </trkpt>
      <trkpt lat="46.42651" lon="6.10657">
        <ele>1472.4</ele>
        <time>2012-08-21T17:04:05.000Z</time>
      </trkpt>
      <trkpt lat="46.42647" lon="6.10653">
        <ele>1474.2</ele>
        <time>2012-08-21T17:04:07.000Z</time>
      </trkpt>
      <trkpt lat="46.42643" lon="6.10649">
        <ele>1474.2</ele>
        <time>2012-08-21T17:04:09.000Z</time>
      </trkpt>
      <trkpt lat="46.42639" lon="6.10645">
        <ele>1474.3</ele>
        <time>2012-08-21T17:04:11.000Z</time>
      </trkpt>
      <trkpt lat="46.42635" lon="6.10642">
        <ele>1473</ele>
        <time>2012-08-21T17:04:13.000Z</time>
      </trkpt>
      <trkpt lat="46.4263" lon="6.10641">
        <ele>1474.3</ele>
        <time>2012-08-21T17:04:15.000Z</time>
      </trkpt>
      <trkpt lat="46.42626" lon="6.10638">
        <ele>1475.1</ele>
        <time>2012-08-21T17:04:18.000Z</time>
      </trkpt>
      <trkpt lat="46.42624" lon="6.10632">
        <ele>1475.9</ele>
        <time>2012-08-21T17:04:24.161Z</time>
      </trkpt>
      <trkpt lat="46.4262" lon="6.10627">
        <ele>1477.5</ele>
        <time>2012-08-21T17:04:28.000Z</time>
      </trkpt>
      <trkpt lat="46.42615" lon="6.10621">
        <ele>1477.7</ele>
        <time>2012-08-21T17:04:31.000Z</time>
      </trkpt>
      <trkpt lat="46.42611" lon="6.10614">
        <ele>1478.6</ele>
        <time>2012-08-21T17:04:34.000Z</time>
      </trkpt>
      <trkpt lat="46.42606" lon="6.10611">
        <ele>1478.8</ele>
        <time>2012-08-21T17:04:37.000Z</time>
      </trkpt>
      <trkpt lat="46.42602" lon="6.1061">
        <ele>1479.3</ele>
        <time>2012-08-21T17:04:40.000Z</time>
      </trkpt>
      <trkpt lat="46.42597" lon="6.10609">
        <ele>1478.6</ele>
        <time>2012-08-21T17:04:43.000Z</time>
      </trkpt>
      <trkpt lat="46.42591" lon="6.1061">
        <ele>1479.2</ele>
        <time>2012-08-21T17:04:46.000Z</time>
      </trkpt>
      <trkpt lat="46.42586" lon="6.1061">
        <ele>1480.7</ele>
        <time>2012-08-21T17:04:50.000Z</time>
      </trkpt>
      <trkpt lat="46.42582" lon="6.10605">
        <ele>1481.5</ele>
        <time>2012-08-21T17:04:55.000Z</time>
      </trkpt>
      <trkpt lat="46.42577" lon="6.106">
        <ele>1484.1</ele>
        <time>2012-08-21T17:05:07.000Z</time>
      </trkpt>
      <trkpt lat="46.42573" lon="6.10594">
        <ele>1485.2</ele>
        <time>2012-08-21T17:05:11.000Z</time>
      </trkpt>
      <trkpt lat="46.42568" lon="6.10589">
        <ele>1486</ele>
        <time>2012-08-21T17:05:14.000Z</time>
      </trkpt>
      <trkpt lat="46.42563" lon="6.10584">
        <ele>1488.1</ele>
        <time>2012-08-21T17:05:16.000Z</time>
      </trkpt>
      <trkpt lat="46.42558" lon="6.10578">
        <ele>1488.7</ele>
        <time>2012-08-21T17:05:18.000Z</time>
      </trkpt>
      <trkpt lat="46.42553" lon="6.10574">
        <ele>1489.3</ele>
        <time>2012-08-21T17:05:20.000Z</time>
      </trkpt>
      <trkpt lat="46.42548" lon="6.1057">
        <ele>1490.5</ele>
        <time>2012-08-21T17:05:23.000Z</time>
      </trkpt>
      <trkpt lat="46.42543" lon="6.10566">
        <ele>1490.5</ele>
        <time>2012-08-21T17:05:27.000Z</time>
      </trkpt>
      <trkpt lat="46.42538" lon="6.10564">
        <ele>1491.3</ele>
        <time>2012-08-21T17:05:42.000Z</time>
      </trkpt>
      <trkpt lat="46.42533" lon="6.10562">
        <ele>1493.6</ele>
        <time>2012-08-21T17:05:45.000Z</time>
      </trkpt>
      <trkpt lat="46.42529" lon="6.10559">
        <ele>1494.3</ele>
        <time>2012-08-21T17:05:47.000Z</time>
      </trkpt>
      <trkpt lat="46.42525" lon="6.10554">
        <ele>1493.7</ele>
        <time>2012-08-21T17:05:49.000Z</time>
      </trkpt>
      <trkpt lat="46.4252" lon="6.10548">
        <ele>1493.2</ele>
        <time>2012-08-21T17:05:51.000Z</time>
      </trkpt>
      <trkpt lat="46.42514" lon="6.10543">
        <ele>1492.6</ele>
        <time>2012-08-21T17:05:53.000Z</time>
      </trkpt>
      <trkpt lat="46.42508" lon="6.10538">
        <ele>1491.5</ele>
        <time>2012-08-21T17:05:55.000Z</time>
      </trkpt>
      <trkpt lat="46.42502" lon="6.10535">
        <ele>1490.3</ele>
        <time>2012-08-21T17:05:57.000Z</time>
      </trkpt>
      <trkpt lat="46.42496" lon="6.10533">
        <ele>1490.6</ele>
        <time>2012-08-21T17:05:59.000Z</time>
      </trkpt>
      <trkpt lat="46.4249" lon="6.10531">
        <ele>1490.3</ele>
        <time>2012-08-21T17:06:01.000Z</time>
      </trkpt>
      <trkpt lat="46.42484" lon="6.1053">
        <ele>1490.6</ele>
        <time>2012-08-21T17:06:03.000Z</time>
      </trkpt>
      <trkpt lat="46.42479" lon="6.1053">
        <ele>1490.9</ele>
        <time>2012-08-21T17:06:05.000Z</time>
      </trkpt>
      <trkpt lat="46.42474" lon="6.10535">
        <ele>1490.8</ele>
        <time>2012-08-21T17:06:07.000Z</time>
      </trkpt>
      <trkpt lat="46.42469" lon="6.10541">
        <ele>1490.4</ele>
        <time>2012-08-21T17:06:09.000Z</time>
      </trkpt>
      <trkpt lat="46.42462" lon="6.10547">
        <ele>1490.4</ele>
        <time>2012-08-21T17:06:11.000Z</time>
      </trkpt>
      <trkpt lat="46.42455" lon="6.1055">
        <ele>1489.8</ele>
        <time>2012-08-21T17:06:13.000Z</time>
      </trkpt>
      <trkpt lat="46.42448" lon="6.1055">
        <ele>1488.9</ele>
        <time>2012-08-21T17:06:15.000Z</time>
      </trkpt>
      <trkpt lat="46.42442" lon="6.10548">
        <ele>1489.4</ele>
        <time>2012-08-21T17:06:17.000Z</time>
      </trkpt>
      <trkpt lat="46.42435" lon="6.10545">
        <ele>1490.6</ele>
        <time>2012-08-21T17:06:19.000Z</time>
      </trkpt>
      <trkpt lat="46.42429" lon="6.1054">
        <ele>1488.8</ele>
        <time>2012-08-21T17:06:21.000Z</time>
      </trkpt>
      <trkpt lat="46.42424" lon="6.10535">
        <ele>1487.8</ele>
        <time>2012-08-21T17:06:23.000Z</time>
      </trkpt>
      <trkpt lat="46.42418" lon="6.10532">
        <ele>1487.6</ele>
        <time>2012-08-21T17:06:25.000Z</time>
      </trkpt>
      <trkpt lat="46.42414" lon="6.10531">
        <ele>1487.2</ele>
        <time>2012-08-21T17:06:27.000Z</time>
      </trkpt>
      <trkpt lat="46.42408" lon="6.1053">
        <ele>1486.9</ele>
        <time>2012-08-21T17:06:29.000Z</time>
      </trkpt>
      <trkpt lat="46.42402" lon="6.10525">
        <ele>1486.6</ele>
        <time>2012-08-21T17:06:31.000Z</time>
      </trkpt>
      <trkpt lat="46.42395" lon="6.10519">
        <ele>1484.9</ele>
        <time>2012-08-21T17:06:33.000Z</time>
      </trkpt>
      <trkpt lat="46.4239" lon="6.10508">
        <ele>1482.9</ele>
        <time>2012-08-21T17:06:35.000Z</time>
      </trkpt>
      <trkpt lat="46.42385" lon="6.10498">
        <ele>1482.2</ele>
        <time>2012-08-21T17:06:37.000Z</time>
      </trkpt>
      <trkpt lat="46.42381" lon="6.10488">
        <ele>1481.7</ele>
        <time>2012-08-21T17:06:39.000Z</time>
      </trkpt>
      <trkpt lat="46.42378" lon="6.1048">
        <ele>1478.8</ele>
        <time>2012-08-21T17:06:41.000Z</time>
      </trkpt>
      <trkpt lat="46.42374" lon="6.10473">
        <ele>1480.2</ele>
        <time>2012-08-21T17:06:43.000Z</time>
      </trkpt>
      <trkpt lat="46.4237" lon="6.10468">
        <ele>1480.1</ele>
        <time>2012-08-21T17:06:46.000Z</time>
      </trkpt>
      <trkpt lat="46.42365" lon="6.10463">
        <ele>1480.9</ele>
        <time>2012-08-21T17:06:49.000Z</time>
      </trkpt>
      <trkpt lat="46.42361" lon="6.10461">
        <ele>1482</ele>
        <time>2012-08-21T17:06:51.000Z</time>
      </trkpt>
      <trkpt lat="46.42355" lon="6.1046">
        <ele>1481.8</ele>
        <time>2012-08-21T17:06:53.000Z</time>
      </trkpt>
      <trkpt lat="46.42349" lon="6.10457">
        <ele>1482.4</ele>
        <time>2012-08-21T17:06:55.000Z</time>
      </trkpt>
      <trkpt lat="46.42343" lon="6.10455">
        <ele>1482.7</ele>
        <time>2012-08-21T17:06:57.000Z</time>
      </trkpt>
      <trkpt lat="46.42337" lon="6.10453">
        <ele>1481.3</ele>
        <time>2012-08-21T17:06:59.000Z</time>
      </trkpt>
      <trkpt lat="46.42332" lon="6.1045">
        <ele>1483.2</ele>
        <time>2012-08-21T17:07:01.000Z</time>
      </trkpt>
      <trkpt lat="46.42327" lon="6.10449">
        <ele>1484</ele>
        <time>2012-08-21T17:07:03.000Z</time>
      </trkpt>
      <trkpt lat="46.42322" lon="6.10447">
        <ele>1484.2</ele>
        <time>2012-08-21T17:07:05.000Z</time>
      </trkpt>
      <trkpt lat="46.42315" lon="6.10446">
        <ele>1487.1</ele>
        <time>2012-08-21T17:07:08.000Z</time>
      </trkpt>
      <trkpt lat="46.4231" lon="6.10447">
        <ele>1487.7</ele>
        <time>2012-08-21T17:07:11.000Z</time>
      </trkpt>
      <trkpt lat="46.42306" lon="6.10452">
        <ele>1488.8</ele>
        <time>2012-08-21T17:07:22.000Z</time>
      </trkpt>
      <trkpt lat="46.42302" lon="6.10453">
        <ele>1489.7</ele>
        <time>2012-08-21T17:07:30.000Z</time>
      </trkpt>
      <trkpt lat="46.42297" lon="6.1045">
        <ele>1489.3</ele>
        <time>2012-08-21T17:07:33.000Z</time>
      </trkpt>
      <trkpt lat="46.42292" lon="6.10446">
        <ele>1491.4</ele>
        <time>2012-08-21T17:07:36.000Z</time>
      </trkpt>
      <trkpt lat="46.42287" lon="6.10444">
        <ele>1491.8</ele>
        <time>2012-08-21T17:07:42.000Z</time>
      </trkpt>
      <trkpt lat="46.42282" lon="6.1044">
        <ele>1492.5</ele>
        <time>2012-08-21T17:07:45.000Z</time>
      </trkpt>
      <trkpt lat="46.42278" lon="6.10434">
        <ele>1494.8</ele>
        <time>2012-08-21T17:07:48.000Z</time>
      </trkpt>
      <trkpt lat="46.42273" lon="6.10432">
        <ele>1496</ele>
        <time>2012-08-21T17:07:51.000Z</time>
      </trkpt>
      <trkpt lat="46.42269" lon="6.10431">
        <ele>1496.1</ele>
        <time>2012-08-21T17:07:54.000Z</time>
      </trkpt>
      <trkpt lat="46.42264" lon="6.10426">
        <ele>1495</ele>
        <time>2012-08-21T17:07:57.000Z</time>
      </trkpt>
      <trkpt lat="46.42262" lon="6.10421">
        <ele>1496.2</ele>
        <time>2012-08-21T17:08:00.000Z</time>
      </trkpt>
      <trkpt lat="46.42261" lon="6.10414">
        <ele>1496.8</ele>
        <time>2012-08-21T17:08:03.000Z</time>
      </trkpt>
      <trkpt lat="46.42259" lon="6.10407">
        <ele>1497.7</ele>
        <time>2012-08-21T17:08:06.000Z</time>
      </trkpt>
      <trkpt lat="46.42258" lon="6.104">
        <ele>1499.9</ele>
        <time>2012-08-21T17:08:11.000Z</time>
      </trkpt>
      <trkpt lat="46.42255" lon="6.10394">
        <ele>1499.8</ele>
        <time>2012-08-21T17:08:15.000Z</time>
      </trkpt>
      <trkpt lat="46.4225" lon="6.10393">
        <ele>1499.8</ele>
        <time>2012-08-21T17:08:20.000Z</time>
      </trkpt>
      <trkpt lat="46.42245" lon="6.10391">
        <ele>1500.6</ele>
        <time>2012-08-21T17:08:23.000Z</time>
      </trkpt>
      <trkpt lat="46.42242" lon="6.10384">
        <ele>1501.2</ele>
        <time>2012-08-21T17:08:27.000Z</time>
      </trkpt>
      <trkpt lat="46.4224" lon="6.10377">
        <ele>1503.3</ele>
        <time>2012-08-21T17:08:31.000Z</time>
      </trkpt>
      <trkpt lat="46.42239" lon="6.1037">
        <ele>1504.9</ele>
        <time>2012-08-21T17:08:34.000Z</time>
      </trkpt>
      <trkpt lat="46.42237" lon="6.10363">
        <ele>1511.9</ele>
        <time>2012-08-21T17:08:44.000Z</time>
      </trkpt>
      <trkpt lat="46.42235" lon="6.10356">
        <ele>1513.6</ele>
        <time>2012-08-21T17:08:48.000Z</time>
      </trkpt>
      <trkpt lat="46.42234" lon="6.10347">
        <ele>1511.9</ele>
        <time>2012-08-21T17:08:51.000Z</time>
      </trkpt>
      <trkpt lat="46.4223" lon="6.10342">
        <ele>1517.5</ele>
        <time>2012-08-21T17:09:22.000Z</time>
      </trkpt>
      <trkpt lat="46.42228" lon="6.10336">
        <ele>1519.5</ele>
        <time>2012-08-21T17:09:28.000Z</time>
      </trkpt>
      <trkpt lat="46.42222" lon="6.10337">
        <ele>1521.1</ele>
        <time>2012-08-21T17:09:33.000Z</time>
      </trkpt>
      <trkpt lat="46.42216" lon="6.10339">
        <ele>1522.3</ele>
        <time>2012-08-21T17:09:37.000Z</time>
      </trkpt>
      <trkpt lat="46.42211" lon="6.10342">
        <ele>1524.4</ele>
        <time>2012-08-21T17:09:41.000Z</time>
      </trkpt>
      <trkpt lat="46.42207" lon="6.10344">
        <ele>1525.1</ele>
        <time>2012-08-21T17:09:44.000Z</time>
      </trkpt>
      <trkpt lat="46.42202" lon="6.10344">
        <ele>1527.7</ele>
        <time>2012-08-21T17:09:49.000Z</time>
      </trkpt>
      <trkpt lat="46.42197" lon="6.10346">
        <ele>1531</ele>
        <time>2012-08-21T17:09:55.000Z</time>
      </trkpt>
      <trkpt lat="46.422" lon="6.10341">
        <ele>1531.4</ele>
        <time>2012-08-21T17:10:05.000Z</time>
      </trkpt>
      <trkpt lat="46.422" lon="6.10334">
        <ele>1532.4</ele>
        <time>2012-08-21T17:10:10.000Z</time>
      </trkpt>
      <trkpt lat="46.42203" lon="6.10329">
        <ele>1534.4</ele>
        <time>2012-08-21T17:10:23.000Z</time>
      </trkpt>
      <trkpt lat="46.42208" lon="6.10324">
        <ele>1536.7</ele>
        <time>2012-08-21T17:10:36.000Z</time>
      </trkpt>
      <trkpt lat="46.42211" lon="6.1032">
        <ele>1537.7</ele>
        <time>2012-08-21T17:10:39.000Z</time>
      </trkpt>
      <trkpt lat="46.42215" lon="6.10315">
        <ele>1538.1</ele>
        <time>2012-08-21T17:10:42.000Z</time>
      </trkpt>
      <trkpt lat="46.42219" lon="6.1031">
        <ele>1539.5</ele>
        <time>2012-08-21T17:10:44.000Z</time>
      </trkpt>
      <trkpt lat="46.42224" lon="6.10307">
        <ele>1541.5</ele>
        <time>2012-08-21T17:10:47.000Z</time>
      </trkpt>
      <trkpt lat="46.42228" lon="6.10303">
        <ele>1543.5</ele>
        <time>2012-08-21T17:10:50.000Z</time>
      </trkpt>
      <trkpt lat="46.42234" lon="6.10303">
        <ele>1544.1</ele>
        <time>2012-08-21T17:10:55.000Z</time>
      </trkpt>
      <trkpt lat="46.42236" lon="6.10297">
        <ele>1546.4</ele>
        <time>2012-08-21T17:11:05.000Z</time>
      </trkpt>
      <trkpt lat="46.42237" lon="6.1029">
        <ele>1547.7</ele>
        <time>2012-08-21T17:11:19.000Z</time>
      </trkpt>
      <trkpt lat="46.42239" lon="6.10281">
        <ele>1547.6</ele>
        <time>2012-08-21T17:11:22.000Z</time>
      </trkpt>
      <trkpt lat="46.4224" lon="6.10274">
        <ele>1547.4</ele>
        <time>2012-08-21T17:11:24.000Z</time>
      </trkpt>
      <trkpt lat="46.42243" lon="6.10267">
        <ele>1547.9</ele>
        <time>2012-08-21T17:11:27.000Z</time>
      </trkpt>
      <trkpt lat="46.42245" lon="6.10258">
        <ele>1547.2</ele>
        <time>2012-08-21T17:11:30.000Z</time>
      </trkpt>
      <trkpt lat="46.42246" lon="6.10251">
        <ele>1547.2</ele>
        <time>2012-08-21T17:11:32.000Z</time>
      </trkpt>
      <trkpt lat="46.42246" lon="6.10243">
        <ele>1547.2</ele>
        <time>2012-08-21T17:11:35.000Z</time>
      </trkpt>
      <trkpt lat="46.42245" lon="6.10236">
        <ele>1547.7</ele>
        <time>2012-08-21T17:11:41.000Z</time>
      </trkpt>
      <trkpt lat="46.42248" lon="6.10231">
        <ele>1556.6</ele>
        <time>2012-08-21T17:11:57.000Z</time>
      </trkpt>
      <trkpt lat="46.4225" lon="6.10224">
        <ele>1557.5</ele>
        <time>2012-08-21T17:12:01.000Z</time>
      </trkpt>
      <trkpt lat="46.42252" lon="6.10219">
        <ele>1558.7</ele>
        <time>2012-08-21T17:12:08.000Z</time>
      </trkpt>
      <trkpt lat="46.42256" lon="6.10214">
        <ele>1562.9</ele>
        <time>2012-08-21T17:12:24.000Z</time>
      </trkpt>
      <trkpt lat="46.42261" lon="6.10212">
        <ele>1569.3</ele>
        <time>2012-08-21T17:12:31.000Z</time>
      </trkpt>
      <trkpt lat="46.42265" lon="6.1021">
        <ele>1578.6</ele>
        <time>2012-08-21T17:12:38.000Z</time>
      </trkpt>
      <trkpt lat="46.42265" lon="6.10204">
        <ele>1581.3</ele>
        <time>2012-08-21T17:12:46.000Z</time>
      </trkpt>
      <trkpt lat="46.42264" lon="6.10196">
        <ele>1580.9</ele>
        <time>2012-08-21T17:12:52.000Z</time>
      </trkpt>
      <trkpt lat="46.42263" lon="6.10188">
        <ele>1580.1</ele>
        <time>2012-08-21T17:12:58.000Z</time>
      </trkpt>
      <trkpt lat="46.42258" lon="6.10187">
        <ele>1580.3</ele>
        <time>2012-08-21T17:13:06.000Z</time>
      </trkpt>
      <trkpt lat="46.42255" lon="6.10181">
        <ele>1582.7</ele>
        <time>2012-08-21T17:13:12.000Z</time>
      </trkpt>
      <trkpt lat="46.4225" lon="6.10176">
        <ele>1581.9</ele>
        <time>2012-08-21T17:13:19.000Z</time>
      </trkpt>
      <trkpt lat="46.42247" lon="6.10181">
        <ele>1590.6</ele>
        <time>2012-08-21T17:13:26.000Z</time>
      </trkpt>
      <trkpt lat="46.42243" lon="6.10165">
        <ele>1588</ele>
        <time>2012-08-21T17:13:52.000Z</time>
      </trkpt>
      <trkpt lat="46.42238" lon="6.10164">
        <ele>1590.8</ele>
        <time>2012-08-21T17:13:54.000Z</time>
      </trkpt>
      <trkpt lat="46.42234" lon="6.10161">
        <ele>1591.9</ele>
        <time>2012-08-21T17:13:56.000Z</time>
      </trkpt>
      <trkpt lat="46.42229" lon="6.10158">
        <ele>1594.6</ele>
        <time>2012-08-21T17:13:59.000Z</time>
      </trkpt>
      <trkpt lat="46.42228" lon="6.10151">
        <ele>1597.3</ele>
        <time>2012-08-21T17:14:04.000Z</time>
      </trkpt>
      <trkpt lat="46.42225" lon="6.10144">
        <ele>1599</ele>
        <time>2012-08-21T17:14:10.000Z</time>
      </trkpt>
      <trkpt lat="46.42225" lon="6.10136">
        <ele>1601.3</ele>
        <time>2012-08-21T17:14:14.000Z</time>
      </trkpt>
      <trkpt lat="46.42227" lon="6.10129">
        <ele>1601.1</ele>
        <time>2012-08-21T17:14:18.000Z</time>
      </trkpt>
      <trkpt lat="46.42222" lon="6.10128">
        <ele>1604.3</ele>
        <time>2012-08-21T17:14:28.000Z</time>
      </trkpt>
      <trkpt lat="46.4222" lon="6.10122">
        <ele>1606.1</ele>
        <time>2012-08-21T17:14:33.000Z</time>
      </trkpt>
      <trkpt lat="46.42219" lon="6.10115">
        <ele>1607.6</ele>
        <time>2012-08-21T17:14:39.000Z</time>
      </trkpt>
      <trkpt lat="46.42214" lon="6.10112">
        <ele>1609.3</ele>
        <time>2012-08-21T17:14:45.000Z</time>
      </trkpt>
      <trkpt lat="46.42209" lon="6.10112">
        <ele>1612.6</ele>
        <time>2012-08-21T17:14:50.000Z</time>
      </trkpt>
      <trkpt lat="46.42207" lon="6.10106">
        <ele>1612.6</ele>
        <time>2012-08-21T17:14:56.000Z</time>
      </trkpt>
      <trkpt lat="46.42211" lon="6.101">
        <ele>1615.1</ele>
        <time>2012-08-21T17:15:21.000Z</time>
      </trkpt>
      <trkpt lat="46.42213" lon="6.10094">
        <ele>1617.9</ele>
        <time>2012-08-21T17:15:25.000Z</time>
      </trkpt>
      <trkpt lat="46.42216" lon="6.10087">
        <ele>1618.5</ele>
        <time>2012-08-21T17:15:30.000Z</time>
      </trkpt>
      <trkpt lat="46.42221" lon="6.10086">
        <ele>1620.7</ele>
        <time>2012-08-21T17:15:34.000Z</time>
      </trkpt>
      <trkpt lat="46.42223" lon="6.10079">
        <ele>1626.9</ele>
        <time>2012-08-21T17:15:41.000Z</time>
      </trkpt>
      <trkpt lat="46.42224" lon="6.10073">
        <ele>1627.1</ele>
        <time>2012-08-21T17:15:47.000Z</time>
      </trkpt>
      <trkpt lat="46.42228" lon="6.10068">
        <ele>1626.8</ele>
        <time>2012-08-21T17:15:51.000Z</time>
      </trkpt>
      <trkpt lat="46.42231" lon="6.10062">
        <ele>1627.7</ele>
        <time>2012-08-21T17:15:55.000Z</time>
      </trkpt>
      <trkpt lat="46.42232" lon="6.10055">
        <ele>1634</ele>
        <time>2012-08-21T17:16:08.000Z</time>
      </trkpt>
      <trkpt lat="46.42232" lon="6.10049">
        <ele>1638</ele>
        <time>2012-08-21T17:16:13.000Z</time>
      </trkpt>
      <trkpt lat="46.42233" lon="6.10042">
        <ele>1637.6</ele>
        <time>2012-08-21T17:16:18.000Z</time>
      </trkpt>
      <trkpt lat="46.42236" lon="6.10036">
        <ele>1636.3</ele>
        <time>2012-08-21T17:16:33.000Z</time>
      </trkpt>
      <trkpt lat="46.42237" lon="6.10029">
        <ele>1633.2</ele>
        <time>2012-08-21T17:16:40.000Z</time>
      </trkpt>
      <trkpt lat="46.42238" lon="6.10022">
        <ele>1630.2</ele>
        <time>2012-08-21T17:16:43.000Z</time>
      </trkpt>
      <trkpt lat="46.42242" lon="6.10018">
        <ele>1630</ele>
        <time>2012-08-21T17:16:46.000Z</time>
      </trkpt>
      <trkpt lat="46.42248" lon="6.10015">
        <ele>1632.3</ele>
        <time>2012-08-21T17:16:49.000Z</time>
      </trkpt>
      <trkpt lat="46.42252" lon="6.10012">
        <ele>1632.7</ele>
        <time>2012-08-21T17:16:51.000Z</time>
      </trkpt>
      <trkpt lat="46.42257" lon="6.10008">
        <ele>1637.7</ele>
        <time>2012-08-21T17:16:54.000Z</time>
      </trkpt>
      <trkpt lat="46.42261" lon="6.10003">
        <ele>1637.8</ele>
        <time>2012-08-21T17:16:58.000Z</time>
      </trkpt>
      <trkpt lat="46.42265" lon="6.1">
        <ele>1639.1</ele>
        <time>2012-08-21T17:17:02.000Z</time>
      </trkpt>
      <trkpt lat="46.42268" lon="6.09994">
        <ele>1639.4</ele>
        <time>2012-08-21T17:17:07.000Z</time>
      </trkpt>
      <trkpt lat="46.42274" lon="6.09995">
        <ele>1639.9</ele>
        <time>2012-08-21T17:17:13.000Z</time>
      </trkpt>
      <trkpt lat="46.42279" lon="6.09996">
        <ele>1640.6</ele>
        <time>2012-08-21T17:17:17.000Z</time>
      </trkpt>
      <trkpt lat="46.42284" lon="6.09995">
        <ele>1644.4</ele>
        <time>2012-08-21T17:17:22.000Z</time>
      </trkpt>
      <trkpt lat="46.42286" lon="6.09989">
        <ele>1650.7</ele>
        <time>2012-08-21T17:17:27.000Z</time>
      </trkpt>
      <trkpt lat="46.42288" lon="6.09983">
        <ele>1651.4</ele>
        <time>2012-08-21T17:17:33.000Z</time>
      </trkpt>
      <trkpt lat="46.42293" lon="6.09981">
        <ele>1657.2</ele>
        <time>2012-08-21T17:17:41.000Z</time>
      </trkpt>
      <trkpt lat="46.42297" lon="6.09977">
        <ele>1657.9</ele>
        <time>2012-08-21T17:17:46.000Z</time>
      </trkpt>
      <trkpt lat="46.42301" lon="6.09974">
        <ele>1658.1</ele>
        <time>2012-08-21T17:17:51.000Z</time>
      </trkpt>
      <trkpt lat="46.42306" lon="6.09973">
        <ele>1660</ele>
        <time>2012-08-21T17:18:00.000Z</time>
      </trkpt>
      <trkpt lat="46.4231" lon="6.09978">
        <ele>1663.3</ele>
        <time>2012-08-21T17:18:07.000Z</time>
      </trkpt>
      <trkpt lat="46.42314" lon="6.09978">
        <ele>1663.8</ele>
        <time>2012-08-21T17:18:14.000Z</time>
      </trkpt>
      <trkpt lat="46.4232" lon="6.0998">
        <ele>1664.2</ele>
        <time>2012-08-21T17:18:19.000Z</time>
      </trkpt>
      <trkpt lat="46.42325" lon="6.09981">
        <ele>1666.7</ele>
        <time>2012-08-21T17:18:22.000Z</time>
      </trkpt>
      <trkpt lat="46.42329" lon="6.09984">
        <ele>1668.5</ele>
        <time>2012-08-21T17:18:26.000Z</time>
      </trkpt>
      <trkpt lat="46.42334" lon="6.09984">
        <ele>1668.9</ele>
        <time>2012-08-21T17:18:30.000Z</time>
      </trkpt>
      <trkpt lat="46.42338" lon="6.09982">
        <ele>1670</ele>
        <time>2012-08-21T17:18:34.000Z</time>
      </trkpt>
      <trkpt lat="46.42343" lon="6.0998">
        <ele>1672.4</ele>
        <time>2012-08-21T17:18:39.000Z</time>
      </trkpt>
      <trkpt lat="46.42347" lon="6.09975">
        <ele>1671.2</ele>
        <time>2012-08-21T17:18:42.000Z</time>
      </trkpt>
      <trkpt lat="46.42352" lon="6.0997">
        <ele>1671.7</ele>
        <time>2012-08-21T17:18:45.000Z</time>
      </trkpt>
      <trkpt lat="46.42356" lon="6.09967">
        <ele>1671.9</ele>
        <time>2012-08-21T17:18:48.000Z</time>
      </trkpt>
      <trkpt lat="46.42361" lon="6.09964">
        <ele>1674</ele>
        <time>2012-08-21T17:18:51.001Z</time>
      </trkpt>
      <trkpt lat="46.42366" lon="6.09964">
        <ele>1674.4</ele>
        <time>2012-08-21T17:18:56.000Z</time>
      </trkpt>
      <trkpt lat="46.42371" lon="6.09963">
        <ele>1674.2</ele>
        <time>2012-08-21T17:19:04.000Z</time>
      </trkpt>
      <trkpt lat="46.42375" lon="6.09961">
        <ele>1676.4</ele>
        <time>2012-08-21T17:19:10.000Z</time>
      </trkpt>
      <trkpt lat="46.4238" lon="6.09958">
        <ele>1677.4</ele>
        <time>2012-08-21T17:19:18.000Z</time>
      </trkpt>
      <trkpt lat="46.42384" lon="6.09956">
        <ele>1680.5</ele>
        <time>2012-08-21T17:19:23.000Z</time>
      </trkpt>
      <trkpt lat="46.42388" lon="6.09954">
        <ele>1681</ele>
        <time>2012-08-21T17:19:27.000Z</time>
      </trkpt>
      <trkpt lat="46.42393" lon="6.09947">
        <ele>1685.3</ele>
        <time>2012-08-21T17:19:30.000Z</time>
      </trkpt>
      <trkpt lat="46.42397" lon="6.09942">
        <ele>1686.3</ele>
        <time>2012-08-21T17:19:33.000Z</time>
      </trkpt>
      <trkpt lat="46.42401" lon="6.09945">
        <ele>1687</ele>
        <time>2012-08-21T17:19:39.000Z</time>
      </trkpt>
      <trkpt lat="46.42405" lon="6.09951">
        <ele>1689.5</ele>
        <time>2012-08-21T17:19:44.000Z</time>
      </trkpt>
      <trkpt lat="46.42408" lon="6.09956">
        <ele>1693.2</ele>
        <time>2012-08-21T17:19:48.000Z</time>
      </trkpt>
      <trkpt lat="46.4241" lon="6.09962">
        <ele>1697.6</ele>
        <time>2012-08-21T17:19:52.000Z</time>
      </trkpt>
      <trkpt lat="46.42414" lon="6.09968">
        <ele>1696.3</ele>
        <time>2012-08-21T17:19:57.000Z</time>
      </trkpt>
      <trkpt lat="46.42417" lon="6.09972">
        <ele>1695.8</ele>
        <time>2012-08-21T17:20:01.000Z</time>
      </trkpt>
      <trkpt lat="46.42421" lon="6.09975">
        <ele>1695</ele>
        <time>2012-08-21T17:20:05.000Z</time>
      </trkpt>
      <trkpt lat="46.42426" lon="6.09973">
        <ele>1699.6</ele>
        <time>2012-08-21T17:20:12.000Z</time>
      </trkpt>
      <trkpt lat="46.42431" lon="6.09972">
        <ele>1700.3</ele>
        <time>2012-08-21T17:20:16.000Z</time>
      </trkpt>
      <trkpt lat="46.42436" lon="6.09971">
        <ele>1703.3</ele>
        <time>2012-08-21T17:20:19.000Z</time>
      </trkpt>
      <trkpt lat="46.42441" lon="6.09971">
        <ele>1704.8</ele>
        <time>2012-08-21T17:20:23.000Z</time>
      </trkpt>
      <trkpt lat="46.42446" lon="6.09972">
        <ele>1706.3</ele>
        <time>2012-08-21T17:20:29.000Z</time>
      </trkpt>
      <trkpt lat="46.4245" lon="6.0997">
        <ele>1708.8</ele>
        <time>2012-08-21T17:20:36.000Z</time>
      </trkpt>
      <trkpt lat="46.42455" lon="6.09968">
        <ele>1710.4</ele>
        <time>2012-08-21T17:20:42.000Z</time>
      </trkpt>
      <trkpt lat="46.4246" lon="6.0997">
        <ele>1711.1</ele>
        <time>2012-08-21T17:20:49.000Z</time>
      </trkpt>
      <trkpt lat="46.42465" lon="6.09969">
        <ele>1711.7</ele>
        <time>2012-08-21T17:20:54.000Z</time>
      </trkpt>
      <trkpt lat="46.4247" lon="6.09969">
        <ele>1712.9</ele>
        <time>2012-08-21T17:20:58.000Z</time>
      </trkpt>
      <trkpt lat="46.42476" lon="6.0997">
        <ele>1714.5</ele>
        <time>2012-08-21T17:21:02.000Z</time>
      </trkpt>
      <trkpt lat="46.42481" lon="6.09973">
        <ele>1714</ele>
        <time>2012-08-21T17:21:05.000Z</time>
      </trkpt>
      <trkpt lat="46.42486" lon="6.09978">
        <ele>1714</ele>
        <time>2012-08-21T17:21:08.000Z</time>
      </trkpt>
      <trkpt lat="46.4249" lon="6.09983">
        <ele>1715</ele>
        <time>2012-08-21T17:21:11.000Z</time>
      </trkpt>
      <trkpt lat="46.42494" lon="6.09984">
        <ele>1714.8</ele>
        <time>2012-08-21T17:21:17.000Z</time>
      </trkpt>
      <trkpt lat="46.42499" lon="6.09984">
        <ele>1718</ele>
        <time>2012-08-21T17:21:21.000Z</time>
      </trkpt>
      <trkpt lat="46.42504" lon="6.09984">
        <ele>1721.5</ele>
        <time>2012-08-21T17:21:24.212Z</time>
      </trkpt>
      <trkpt lat="46.42509" lon="6.09986">
        <ele>1722.3</ele>
        <time>2012-08-21T17:21:29.000Z</time>
      </trkpt>
      <trkpt lat="46.42513" lon="6.09987">
        <ele>1723.8</ele>
        <time>2012-08-21T17:21:33.000Z</time>
      </trkpt>
      <trkpt lat="46.42517" lon="6.09991">
        <ele>1723.2</ele>
        <time>2012-08-21T17:21:38.000Z</time>
      </trkpt>
      <trkpt lat="46.42517" lon="6.09998">
        <ele>1721.8</ele>
        <time>2012-08-21T17:21:44.000Z</time>
      </trkpt>
      <trkpt lat="46.4252" lon="6.09992">
        <ele>1718.1</ele>
        <time>2012-08-21T17:23:17.000Z</time>
      </trkpt>
      <trkpt lat="46.4252" lon="6.09999">
        <ele>1720.3</ele>
        <time>2012-08-21T17:23:41.000Z</time>
      </trkpt>
      <trkpt lat="46.42524" lon="6.09996">
        <ele>1723.6</ele>
        <time>2012-08-21T17:30:24.000Z</time>
      </trkpt>
      <trkpt lat="46.4253" lon="6.09995">
        <ele>1723.8</ele>
        <time>2012-08-21T17:30:27.000Z</time>
      </trkpt>
      <trkpt lat="46.42534" lon="6.09995">
        <ele>1722.7</ele>
        <time>2012-08-21T17:30:29.000Z</time>
      </trkpt>
      <trkpt lat="46.4254" lon="6.09995">
        <ele>1724.2</ele>
        <time>2012-08-21T17:30:33.000Z</time>
      </trkpt>
      <trkpt lat="46.42546" lon="6.09992">
        <ele>1726</ele>
        <time>2012-08-21T17:30:38.000Z</time>
      </trkpt>
      <trkpt lat="46.42552" lon="6.09993">
        <ele>1726.5</ele>
        <time>2012-08-21T17:30:42.000Z</time>
      </trkpt>
      <trkpt lat="46.42558" lon="6.09994">
        <ele>1726.6</ele>
        <time>2012-08-21T17:30:48.000Z</time>
      </trkpt>
      <trkpt lat="46.42563" lon="6.09997">
        <ele>1727.1</ele>
        <time>2012-08-21T17:30:56.000Z</time>
      </trkpt>
      <trkpt lat="46.42569" lon="6.10002">
        <ele>1727.7</ele>
        <time>2012-08-21T17:31:00.000Z</time>
      </trkpt>
      <trkpt lat="46.42572" lon="6.10007">
        <ele>1727.5</ele>
        <time>2012-08-21T17:31:01.000Z</time>
      </trkpt>
      <trkpt lat="46.42576" lon="6.10012">
        <ele>1729</ele>
        <time>2012-08-21T17:31:03.000Z</time>
      </trkpt>
      <trkpt lat="46.4258" lon="6.10017">
        <ele>1729.3</ele>
        <time>2012-08-21T17:31:06.000Z</time>
      </trkpt>
      <trkpt lat="46.42585" lon="6.10023">
        <ele>1728.3</ele>
        <time>2012-08-21T17:31:09.000Z</time>
      </trkpt>
      <trkpt lat="46.42589" lon="6.10027">
        <ele>1727.9</ele>
        <time>2012-08-21T17:31:11.000Z</time>
      </trkpt>
      <trkpt lat="46.42594" lon="6.10032">
        <ele>1729.6</ele>
        <time>2012-08-21T17:31:14.000Z</time>
      </trkpt>
      <trkpt lat="46.42597" lon="6.10035">
        <ele>1728.9</ele>
        <time>2012-08-21T17:31:16.000Z</time>
      </trkpt>
      <trkpt lat="46.42602" lon="6.10042">
        <ele>1728.7</ele>
        <time>2012-08-21T17:31:19.000Z</time>
      </trkpt>
      <trkpt lat="46.42606" lon="6.10049">
        <ele>1728.7</ele>
        <time>2012-08-21T17:31:22.000Z</time>
      </trkpt>
      <trkpt lat="46.42612" lon="6.10052">
        <ele>1728.7</ele>
        <time>2012-08-21T17:31:25.000Z</time>
      </trkpt>
      <trkpt lat="46.42615" lon="6.10057">
        <ele>1728.6</ele>
        <time>2012-08-21T17:31:28.000Z</time>
      </trkpt>
      <trkpt lat="46.4262" lon="6.1006">
        <ele>1727.9</ele>
        <time>2012-08-21T17:31:31.000Z</time>
      </trkpt>
      <trkpt lat="46.42625" lon="6.10063">
        <ele>1728</ele>
        <time>2012-08-21T17:31:33.000Z</time>
      </trkpt>
      <trkpt lat="46.4263" lon="6.10066">
        <ele>1727.6</ele>
        <time>2012-08-21T17:31:35.000Z</time>
      </trkpt>
      <trkpt lat="46.42637" lon="6.10071">
        <ele>1726.2</ele>
        <time>2012-08-21T17:31:37.749Z</time>
      </trkpt>
      <trkpt lat="46.42642" lon="6.10074">
        <ele>1725.5</ele>
        <time>2012-08-21T17:31:40.000Z</time>
      </trkpt>
      <trkpt lat="46.42648" lon="6.10076">
        <ele>1724.1</ele>
        <time>2012-08-21T17:31:42.000Z</time>
      </trkpt>
      <trkpt lat="46.42653" lon="6.10078">
        <ele>1723.4</ele>
        <time>2012-08-21T17:31:44.000Z</time>
      </trkpt>
      <trkpt lat="46.42658" lon="6.10081">
        <ele>1723.7</ele>
        <time>2012-08-21T17:31:46.000Z</time>
      </trkpt>
      <trkpt lat="46.42663" lon="6.10084">
        <ele>1722.8</ele>
        <time>2012-08-21T17:31:49.000Z</time>
      </trkpt>
      <trkpt lat="46.42668" lon="6.10088">
        <ele>1721.2</ele>
        <time>2012-08-21T17:31:52.000Z</time>
      </trkpt>
      <trkpt lat="46.42672" lon="6.10093">
        <ele>1720.3</ele>
        <time>2012-08-21T17:31:55.000Z</time>
      </trkpt>
      <trkpt lat="46.42677" lon="6.10096">
        <ele>1719.1</ele>
        <time>2012-08-21T17:31:58.000Z</time>
      </trkpt>
      <trkpt lat="46.42681" lon="6.101">
        <ele>1719.6</ele>
        <time>2012-08-21T17:32:00.000Z</time>
      </trkpt>
      <trkpt lat="46.42686" lon="6.10103">
        <ele>1716.8</ele>
        <time>2012-08-21T17:32:02.000Z</time>
      </trkpt>
      <trkpt lat="46.42691" lon="6.10106">
        <ele>1718.6</ele>
        <time>2012-08-21T17:32:04.000Z</time>
      </trkpt>
      <trkpt lat="46.42697" lon="6.10112">
        <ele>1719.9</ele>
        <time>2012-08-21T17:32:07.000Z</time>
      </trkpt>
      <trkpt lat="46.42701" lon="6.10117">
        <ele>1719.5</ele>
        <time>2012-08-21T17:32:09.000Z</time>
      </trkpt>
      <trkpt lat="46.42705" lon="6.10122">
        <ele>1718.2</ele>
        <time>2012-08-21T17:32:11.000Z</time>
      </trkpt>
      <trkpt lat="46.42709" lon="6.10128">
        <ele>1716</ele>
        <time>2012-08-21T17:32:13.000Z</time>
      </trkpt>
      <trkpt lat="46.42713" lon="6.10132">
        <ele>1716.2</ele>
        <time>2012-08-21T17:32:15.000Z</time>
      </trkpt>
      <trkpt lat="46.42717" lon="6.10136">
        <ele>1717.1</ele>
        <time>2012-08-21T17:32:17.000Z</time>
      </trkpt>
      <trkpt lat="46.42722" lon="6.1014">
        <ele>1717.2</ele>
        <time>2012-08-21T17:32:19.000Z</time>
      </trkpt>
      <trkpt lat="46.42727" lon="6.10143">
        <ele>1717.2</ele>
        <time>2012-08-21T17:32:21.000Z</time>
      </trkpt>
      <trkpt lat="46.42731" lon="6.10147">
        <ele>1717.9</ele>
        <time>2012-08-21T17:32:23.000Z</time>
      </trkpt>
      <trkpt lat="46.42735" lon="6.10151">
        <ele>1718.3</ele>
        <time>2012-08-21T17:32:25.000Z</time>
      </trkpt>
      <trkpt lat="46.42739" lon="6.10156">
        <ele>1718.6</ele>
        <time>2012-08-21T17:32:27.000Z</time>
      </trkpt>
      <trkpt lat="46.42744" lon="6.1016">
        <ele>1716.3</ele>
        <time>2012-08-21T17:32:29.000Z</time>
      </trkpt>
      <trkpt lat="46.42749" lon="6.10163">
        <ele>1716.6</ele>
        <time>2012-08-21T17:32:31.000Z</time>
      </trkpt>
      <trkpt lat="46.42754" lon="6.10167">
        <ele>1716.6</ele>
        <time>2012-08-21T17:32:33.000Z</time>
      </trkpt>
      <trkpt lat="46.42758" lon="6.10171">
        <ele>1716.3</ele>
        <time>2012-08-21T17:32:35.000Z</time>
      </trkpt>
      <trkpt lat="46.42764" lon="6.10177">
        <ele>1716.4</ele>
        <time>2012-08-21T17:32:37.714Z</time>
      </trkpt>
      <trkpt lat="46.42769" lon="6.10181">
        <ele>1714.9</ele>
        <time>2012-08-21T17:32:40.000Z</time>
      </trkpt>
      <trkpt lat="46.42774" lon="6.10185">
        <ele>1715.5</ele>
        <time>2012-08-21T17:32:42.000Z</time>
      </trkpt>
      <trkpt lat="46.42778" lon="6.10187">
        <ele>1716.4</ele>
        <time>2012-08-21T17:32:44.000Z</time>
      </trkpt>
      <trkpt lat="46.42784" lon="6.10189">
        <ele>1717.2</ele>
        <time>2012-08-21T17:32:47.000Z</time>
      </trkpt>
      <trkpt lat="46.4279" lon="6.10189">
        <ele>1716.1</ele>
        <time>2012-08-21T17:32:50.000Z</time>
      </trkpt>
      <trkpt lat="46.42796" lon="6.10191">
        <ele>1715.8</ele>
        <time>2012-08-21T17:32:53.000Z</time>
      </trkpt>
      <trkpt lat="46.42801" lon="6.10192">
        <ele>1716.6</ele>
        <time>2012-08-21T17:32:55.000Z</time>
      </trkpt>
      <trkpt lat="46.42806" lon="6.10193">
        <ele>1716.2</ele>
        <time>2012-08-21T17:32:57.000Z</time>
      </trkpt>
      <trkpt lat="46.4281" lon="6.10194">
        <ele>1716.2</ele>
        <time>2012-08-21T17:32:59.000Z</time>
      </trkpt>
      <trkpt lat="46.42815" lon="6.10197">
        <ele>1716.6</ele>
        <time>2012-08-21T17:33:01.000Z</time>
      </trkpt>
      <trkpt lat="46.4282" lon="6.10198">
        <ele>1716.7</ele>
        <time>2012-08-21T17:33:03.000Z</time>
      </trkpt>
      <trkpt lat="46.42825" lon="6.10198">
        <ele>1716.6</ele>
        <time>2012-08-21T17:33:05.000Z</time>
      </trkpt>
      <trkpt lat="46.42832" lon="6.10196">
        <ele>1713.8</ele>
        <time>2012-08-21T17:33:08.000Z</time>
      </trkpt>
      <trkpt lat="46.42837" lon="6.10194">
        <ele>1710.9</ele>
        <time>2012-08-21T17:33:11.000Z</time>
      </trkpt>
      <trkpt lat="46.42842" lon="6.10192">
        <ele>1707.7</ele>
        <time>2012-08-21T17:33:13.000Z</time>
      </trkpt>
      <trkpt lat="46.42848" lon="6.10188">
        <ele>1708.8</ele>
        <time>2012-08-21T17:33:16.000Z</time>
      </trkpt>
      <trkpt lat="46.42853" lon="6.10187">
        <ele>1708.6</ele>
        <time>2012-08-21T17:33:19.000Z</time>
      </trkpt>
      <trkpt lat="46.42858" lon="6.10188">
        <ele>1710.6</ele>
        <time>2012-08-21T17:33:22.000Z</time>
      </trkpt>
      <trkpt lat="46.42865" lon="6.1019">
        <ele>1710</ele>
        <time>2012-08-21T17:33:25.000Z</time>
      </trkpt>
      <trkpt lat="46.42869" lon="6.10193">
        <ele>1708.8</ele>
        <time>2012-08-21T17:33:27.000Z</time>
      </trkpt>
      <trkpt lat="46.42874" lon="6.10194">
        <ele>1706.7</ele>
        <time>2012-08-21T17:33:29.000Z</time>
      </trkpt>
      <trkpt lat="46.42879" lon="6.10195">
        <ele>1706.8</ele>
        <time>2012-08-21T17:33:31.000Z</time>
      </trkpt>
      <trkpt lat="46.42883" lon="6.10196">
        <ele>1704.7</ele>
        <time>2012-08-21T17:33:33.000Z</time>
      </trkpt>
      <trkpt lat="46.42888" lon="6.10196">
        <ele>1705</ele>
        <time>2012-08-21T17:33:35.000Z</time>
      </trkpt>
      <trkpt lat="46.42895" lon="6.10197">
        <ele>1703.4</ele>
        <time>2012-08-21T17:33:37.776Z</time>
      </trkpt>
      <trkpt lat="46.42901" lon="6.10198">
        <ele>1702.9</ele>
        <time>2012-08-21T17:33:40.000Z</time>
      </trkpt>
      <trkpt lat="46.42906" lon="6.102">
        <ele>1701.7</ele>
        <time>2012-08-21T17:33:42.000Z</time>
      </trkpt>
      <trkpt lat="46.42911" lon="6.10202">
        <ele>1701.1</ele>
        <time>2012-08-21T17:33:44.000Z</time>
      </trkpt>
      <trkpt lat="46.42916" lon="6.10205">
        <ele>1699.6</ele>
        <time>2012-08-21T17:33:46.000Z</time>
      </trkpt>
      <trkpt lat="46.42921" lon="6.10205">
        <ele>1701.8</ele>
        <time>2012-08-21T17:33:48.000Z</time>
      </trkpt>
      <trkpt lat="46.42926" lon="6.10202">
        <ele>1700</ele>
        <time>2012-08-21T17:33:51.000Z</time>
      </trkpt>
      <trkpt lat="46.42931" lon="6.10198">
        <ele>1700.7</ele>
        <time>2012-08-21T17:33:54.000Z</time>
      </trkpt>
      <trkpt lat="46.42935" lon="6.10195">
        <ele>1699.7</ele>
        <time>2012-08-21T17:33:57.000Z</time>
      </trkpt>
      <trkpt lat="46.4294" lon="6.10194">
        <ele>1699.7</ele>
        <time>2012-08-21T17:34:00.000Z</time>
      </trkpt>
      <trkpt lat="46.42945" lon="6.10193">
        <ele>1697.2</ele>
        <time>2012-08-21T17:34:03.000Z</time>
      </trkpt>
      <trkpt lat="46.42951" lon="6.10191">
        <ele>1695.8</ele>
        <time>2012-08-21T17:34:06.000Z</time>
      </trkpt>
      <trkpt lat="46.42956" lon="6.10191">
        <ele>1694.9</ele>
        <time>2012-08-21T17:34:09.000Z</time>
      </trkpt>
      <trkpt lat="46.42958" lon="6.10185">
        <ele>1688.9</ele>
        <time>2012-08-21T17:34:15.000Z</time>
      </trkpt>
      <trkpt lat="46.42962" lon="6.10184">
        <ele>1689.5</ele>
        <time>2012-08-21T17:34:21.000Z</time>
      </trkpt>
      <trkpt lat="46.42968" lon="6.10182">
        <ele>1688</ele>
        <time>2012-08-21T17:34:35.000Z</time>
      </trkpt>
      <trkpt lat="46.42966" lon="6.10176">
        <ele>1687.2</ele>
        <time>2012-08-21T17:34:39.000Z</time>
      </trkpt>
      <trkpt lat="46.42972" lon="6.10174">
        <ele>1686.3</ele>
        <time>2012-08-21T17:34:45.000Z</time>
      </trkpt>
      <trkpt lat="46.42978" lon="6.10179">
        <ele>1685.7</ele>
        <time>2012-08-21T17:34:47.000Z</time>
      </trkpt>
      <trkpt lat="46.42985" lon="6.10185">
        <ele>1685.2</ele>
        <time>2012-08-21T17:34:49.000Z</time>
      </trkpt>
      <trkpt lat="46.42992" lon="6.10192">
        <ele>1685</ele>
        <time>2012-08-21T17:34:51.000Z</time>
      </trkpt>
      <trkpt lat="46.42998" lon="6.10197">
        <ele>1684.7</ele>
        <time>2012-08-21T17:34:53.000Z</time>
      </trkpt>
      <trkpt lat="46.43004" lon="6.10201">
        <ele>1684.7</ele>
        <time>2012-08-21T17:34:55.000Z</time>
      </trkpt>
      <trkpt lat="46.43009" lon="6.10204">
        <ele>1684.4</ele>
        <time>2012-08-21T17:34:57.000Z</time>
      </trkpt>
      <trkpt lat="46.43014" lon="6.10206">
        <ele>1684.6</ele>
        <time>2012-08-21T17:34:59.000Z</time>
      </trkpt>
      <trkpt lat="46.4302" lon="6.10209">
        <ele>1684.3</ele>
        <time>2012-08-21T17:35:02.000Z</time>
      </trkpt>
      <trkpt lat="46.43026" lon="6.10212">
        <ele>1685</ele>
        <time>2012-08-21T17:35:05.000Z</time>
      </trkpt>
      <trkpt lat="46.4303" lon="6.10215">
        <ele>1683.9</ele>
        <time>2012-08-21T17:35:08.000Z</time>
      </trkpt>
      <trkpt lat="46.43035" lon="6.10214">
        <ele>1683.1</ele>
        <time>2012-08-21T17:35:11.000Z</time>
      </trkpt>
      <trkpt lat="46.4304" lon="6.10213">
        <ele>1683.3</ele>
        <time>2012-08-21T17:35:14.000Z</time>
      </trkpt>
      <trkpt lat="46.43046" lon="6.10213">
        <ele>1681.1</ele>
        <time>2012-08-21T17:35:17.000Z</time>
      </trkpt>
      <trkpt lat="46.43049" lon="6.10207">
        <ele>1681.7</ele>
        <time>2012-08-21T17:35:22.000Z</time>
      </trkpt>
      <trkpt lat="46.43053" lon="6.10203">
        <ele>1677.9</ele>
        <time>2012-08-21T17:35:27.000Z</time>
      </trkpt>
      <trkpt lat="46.43058" lon="6.10202">
        <ele>1674.5</ele>
        <time>2012-08-21T17:35:32.000Z</time>
      </trkpt>
      <trkpt lat="46.43063" lon="6.102">
        <ele>1671.8</ele>
        <time>2012-08-21T17:35:37.757Z</time>
      </trkpt>
      <trkpt lat="46.43068" lon="6.102">
        <ele>1670.5</ele>
        <time>2012-08-21T17:35:46.000Z</time>
      </trkpt>
      <trkpt lat="46.43074" lon="6.102">
        <ele>1669.6</ele>
        <time>2012-08-21T17:35:49.000Z</time>
      </trkpt>
      <trkpt lat="46.43079" lon="6.10201">
        <ele>1668.7</ele>
        <time>2012-08-21T17:35:51.000Z</time>
      </trkpt>
      <trkpt lat="46.43084" lon="6.102">
        <ele>1666.3</ele>
        <time>2012-08-21T17:35:53.000Z</time>
      </trkpt>
      <trkpt lat="46.4309" lon="6.102">
        <ele>1665</ele>
        <time>2012-08-21T17:35:55.000Z</time>
      </trkpt>
      <trkpt lat="46.43096" lon="6.10196">
        <ele>1663.4</ele>
        <time>2012-08-21T17:35:58.000Z</time>
      </trkpt>
      <trkpt lat="46.43102" lon="6.10193">
        <ele>1662.4</ele>
        <time>2012-08-21T17:36:01.000Z</time>
      </trkpt>
      <trkpt lat="46.43106" lon="6.1019">
        <ele>1660.4</ele>
        <time>2012-08-21T17:36:03.000Z</time>
      </trkpt>
      <trkpt lat="46.4311" lon="6.10188">
        <ele>1660.6</ele>
        <time>2012-08-21T17:36:05.000Z</time>
      </trkpt>
      <trkpt lat="46.43116" lon="6.10187">
        <ele>1659.3</ele>
        <time>2012-08-21T17:36:07.000Z</time>
      </trkpt>
      <trkpt lat="46.43121" lon="6.10188">
        <ele>1658.3</ele>
        <time>2012-08-21T17:36:10.000Z</time>
      </trkpt>
      <trkpt lat="46.43127" lon="6.10191">
        <ele>1658.9</ele>
        <time>2012-08-21T17:36:13.000Z</time>
      </trkpt>
      <trkpt lat="46.43133" lon="6.10195">
        <ele>1658.3</ele>
        <time>2012-08-21T17:36:16.000Z</time>
      </trkpt>
      <trkpt lat="46.43137" lon="6.10199">
        <ele>1657.6</ele>
        <time>2012-08-21T17:36:18.000Z</time>
      </trkpt>
      <trkpt lat="46.43142" lon="6.10201">
        <ele>1656.5</ele>
        <time>2012-08-21T17:36:20.000Z</time>
      </trkpt>
      <trkpt lat="46.43147" lon="6.10202">
        <ele>1655.8</ele>
        <time>2012-08-21T17:36:22.000Z</time>
      </trkpt>
      <trkpt lat="46.43153" lon="6.10204">
        <ele>1656.4</ele>
        <time>2012-08-21T17:36:24.000Z</time>
      </trkpt>
      <trkpt lat="46.43158" lon="6.10206">
        <ele>1654.7</ele>
        <time>2012-08-21T17:36:26.000Z</time>
      </trkpt>
      <trkpt lat="46.43163" lon="6.10206">
        <ele>1654.9</ele>
        <time>2012-08-21T17:36:28.000Z</time>
      </trkpt>
      <trkpt lat="46.43167" lon="6.10206">
        <ele>1655.1</ele>
        <time>2012-08-21T17:36:30.000Z</time>
      </trkpt>
      <trkpt lat="46.43172" lon="6.10208">
        <ele>1654.7</ele>
        <time>2012-08-21T17:36:33.000Z</time>
      </trkpt>
      <trkpt lat="46.43178" lon="6.1021">
        <ele>1652.8</ele>
        <time>2012-08-21T17:36:36.000Z</time>
      </trkpt>
      <trkpt lat="46.43182" lon="6.10212">
        <ele>1651.3</ele>
        <time>2012-08-21T17:36:38.000Z</time>
      </trkpt>
      <trkpt lat="46.43186" lon="6.10216">
        <ele>1649.9</ele>
        <time>2012-08-21T17:36:40.000Z</time>
      </trkpt>
      <trkpt lat="46.43192" lon="6.10223">
        <ele>1647.1</ele>
        <time>2012-08-21T17:36:43.000Z</time>
      </trkpt>
      <trkpt lat="46.43198" lon="6.10229">
        <ele>1646</ele>
        <time>2012-08-21T17:36:45.000Z</time>
      </trkpt>
      <trkpt lat="46.43203" lon="6.10233">
        <ele>1644.7</ele>
        <time>2012-08-21T17:36:47.000Z</time>
      </trkpt>
      <trkpt lat="46.43206" lon="6.10239">
        <ele>1643.7</ele>
        <time>2012-08-21T17:36:49.000Z</time>
      </trkpt>
      <trkpt lat="46.43209" lon="6.10244">
        <ele>1641.6</ele>
        <time>2012-08-21T17:36:52.000Z</time>
      </trkpt>
      <trkpt lat="46.43212" lon="6.10251">
        <ele>1637</ele>
        <time>2012-08-21T17:36:57.000Z</time>
      </trkpt>
      <trkpt lat="46.43214" lon="6.10257">
        <ele>1636.3</ele>
        <time>2012-08-21T17:37:02.000Z</time>
      </trkpt>
      <trkpt lat="46.43215" lon="6.10264">
        <ele>1635.1</ele>
        <time>2012-08-21T17:37:09.000Z</time>
      </trkpt>
      <trkpt lat="46.4322" lon="6.1027">
        <ele>1633.8</ele>
        <time>2012-08-21T17:37:12.000Z</time>
      </trkpt>
      <trkpt lat="46.43222" lon="6.10277">
        <ele>1632.3</ele>
        <time>2012-08-21T17:37:15.000Z</time>
      </trkpt>
      <trkpt lat="46.4323" lon="6.10289">
        <ele>1633.7</ele>
        <time>2012-08-21T17:37:25.000Z</time>
      </trkpt>
      <trkpt lat="46.43235" lon="6.10288">
        <ele>1632.7</ele>
        <time>2012-08-21T17:37:29.000Z</time>
      </trkpt>
      <trkpt lat="46.43239" lon="6.10293">
        <ele>1632.2</ele>
        <time>2012-08-21T17:37:32.000Z</time>
      </trkpt>
      <trkpt lat="46.43242" lon="6.10298">
        <ele>1632.7</ele>
        <time>2012-08-21T17:37:36.000Z</time>
      </trkpt>
      <trkpt lat="46.43244" lon="6.10306">
        <ele>1630.5</ele>
        <time>2012-08-21T17:37:41.000Z</time>
      </trkpt>
      <trkpt lat="46.43246" lon="6.10312">
        <ele>1624.3</ele>
        <time>2012-08-21T17:37:47.000Z</time>
      </trkpt>
      <trkpt lat="46.43243" lon="6.10318">
        <ele>1621.5</ele>
        <time>2012-08-21T17:37:52.000Z</time>
      </trkpt>
      <trkpt lat="46.43247" lon="6.10321">
        <ele>1619.8</ele>
        <time>2012-08-21T17:38:06.000Z</time>
      </trkpt>
      <trkpt lat="46.43251" lon="6.10316">
        <ele>1620.6</ele>
        <time>2012-08-21T17:38:13.000Z</time>
      </trkpt>
      <trkpt lat="46.43256" lon="6.10315">
        <ele>1616.3</ele>
        <time>2012-08-21T17:38:18.000Z</time>
      </trkpt>
      <trkpt lat="46.4326" lon="6.10316">
        <ele>1612.6</ele>
        <time>2012-08-21T17:38:28.000Z</time>
      </trkpt>
      <trkpt lat="46.43266" lon="6.10316">
        <ele>1611.4</ele>
        <time>2012-08-21T17:38:34.000Z</time>
      </trkpt>
      <trkpt lat="46.43261" lon="6.10314">
        <ele>1603.8</ele>
        <time>2012-08-21T17:38:48.000Z</time>
      </trkpt>
      <trkpt lat="46.4326" lon="6.10307">
        <ele>1603.5</ele>
        <time>2012-08-21T17:38:50.000Z</time>
      </trkpt>
      <trkpt lat="46.43261" lon="6.10299">
        <ele>1603.4</ele>
        <time>2012-08-21T17:38:52.000Z</time>
      </trkpt>
      <trkpt lat="46.43261" lon="6.10292">
        <ele>1602.6</ele>
        <time>2012-08-21T17:38:54.000Z</time>
      </trkpt>
      <trkpt lat="46.43261" lon="6.10284">
        <ele>1602.2</ele>
        <time>2012-08-21T17:38:56.000Z</time>
      </trkpt>
      <trkpt lat="46.43261" lon="6.10276">
        <ele>1597.9</ele>
        <time>2012-08-21T17:38:59.000Z</time>
      </trkpt>
      <trkpt lat="46.43263" lon="6.10267">
        <ele>1597.9</ele>
        <time>2012-08-21T17:39:02.000Z</time>
      </trkpt>
      <trkpt lat="46.43266" lon="6.10262">
        <ele>1595.6</ele>
        <time>2012-08-21T17:39:04.000Z</time>
      </trkpt>
      <trkpt lat="46.4327" lon="6.10255">
        <ele>1593.2</ele>
        <time>2012-08-21T17:39:07.000Z</time>
      </trkpt>
      <trkpt lat="46.43274" lon="6.10249">
        <ele>1591.6</ele>
        <time>2012-08-21T17:39:10.000Z</time>
      </trkpt>
      <trkpt lat="46.43276" lon="6.10242">
        <ele>1590.5</ele>
        <time>2012-08-21T17:39:13.000Z</time>
      </trkpt>
      <trkpt lat="46.43279" lon="6.10234">
        <ele>1590.1</ele>
        <time>2012-08-21T17:39:16.000Z</time>
      </trkpt>
      <trkpt lat="46.43281" lon="6.10226">
        <ele>1588.4</ele>
        <time>2012-08-21T17:39:19.000Z</time>
      </trkpt>
      <trkpt lat="46.43282" lon="6.10217">
        <ele>1587.7</ele>
        <time>2012-08-21T17:39:22.000Z</time>
      </trkpt>
      <trkpt lat="46.43284" lon="6.10209">
        <ele>1586.1</ele>
        <time>2012-08-21T17:39:25.045Z</time>
      </trkpt>
      <trkpt lat="46.43288" lon="6.10202">
        <ele>1583</ele>
        <time>2012-08-21T17:39:29.000Z</time>
      </trkpt>
      <trkpt lat="46.43289" lon="6.10195">
        <ele>1582</ele>
        <time>2012-08-21T17:39:33.000Z</time>
      </trkpt>
      <trkpt lat="46.43292" lon="6.10187">
        <ele>1580.6</ele>
        <time>2012-08-21T17:39:36.000Z</time>
      </trkpt>
      <trkpt lat="46.43296" lon="6.10179">
        <ele>1580.2</ele>
        <time>2012-08-21T17:39:39.000Z</time>
      </trkpt>
      <trkpt lat="46.43298" lon="6.10172">
        <ele>1577.8</ele>
        <time>2012-08-21T17:39:42.000Z</time>
      </trkpt>
      <trkpt lat="46.433" lon="6.10165">
        <ele>1576.8</ele>
        <time>2012-08-21T17:39:46.000Z</time>
      </trkpt>
      <trkpt lat="46.43301" lon="6.10156">
        <ele>1577</ele>
        <time>2012-08-21T17:39:50.000Z</time>
      </trkpt>
      <trkpt lat="46.43302" lon="6.10149">
        <ele>1574.9</ele>
        <time>2012-08-21T17:39:53.000Z</time>
      </trkpt>
      <trkpt lat="46.43305" lon="6.10142">
        <ele>1574.3</ele>
        <time>2012-08-21T17:39:56.000Z</time>
      </trkpt>
      <trkpt lat="46.43306" lon="6.10134">
        <ele>1573.8</ele>
        <time>2012-08-21T17:39:59.000Z</time>
      </trkpt>
      <trkpt lat="46.43306" lon="6.10126">
        <ele>1569.9</ele>
        <time>2012-08-21T17:40:02.000Z</time>
      </trkpt>
      <trkpt lat="46.43306" lon="6.10119">
        <ele>1569.3</ele>
        <time>2012-08-21T17:40:05.000Z</time>
      </trkpt>
      <trkpt lat="46.43308" lon="6.10112">
        <ele>1567.8</ele>
        <time>2012-08-21T17:40:08.000Z</time>
      </trkpt>
      <trkpt lat="46.43311" lon="6.10104">
        <ele>1568.1</ele>
        <time>2012-08-21T17:40:11.000Z</time>
      </trkpt>
      <trkpt lat="46.43314" lon="6.10097">
        <ele>1566.7</ele>
        <time>2012-08-21T17:40:14.000Z</time>
      </trkpt>
      <trkpt lat="46.43318" lon="6.10091">
        <ele>1565.4</ele>
        <time>2012-08-21T17:40:17.000Z</time>
      </trkpt>
      <trkpt lat="46.43324" lon="6.10085">
        <ele>1565.1</ele>
        <time>2012-08-21T17:40:20.000Z</time>
      </trkpt>
      <trkpt lat="46.43327" lon="6.1008">
        <ele>1565</ele>
        <time>2012-08-21T17:40:22.000Z</time>
      </trkpt>
      <trkpt lat="46.43331" lon="6.10074">
        <ele>1564</ele>
        <time>2012-08-21T17:40:24.000Z</time>
      </trkpt>
      <trkpt lat="46.43337" lon="6.10068">
        <ele>1562.7</ele>
        <time>2012-08-21T17:40:27.000Z</time>
      </trkpt>
      <trkpt lat="46.43338" lon="6.1006">
        <ele>1561.2</ele>
        <time>2012-08-21T17:40:30.000Z</time>
      </trkpt>
      <trkpt lat="46.43338" lon="6.10054">
        <ele>1559.4</ele>
        <time>2012-08-21T17:40:33.000Z</time>
      </trkpt>
      <trkpt lat="46.43339" lon="6.10047">
        <ele>1558.4</ele>
        <time>2012-08-21T17:40:36.000Z</time>
      </trkpt>
      <trkpt lat="46.43341" lon="6.1004">
        <ele>1557.6</ele>
        <time>2012-08-21T17:40:39.000Z</time>
      </trkpt>
      <trkpt lat="46.43343" lon="6.10034">
        <ele>1555.9</ele>
        <time>2012-08-21T17:40:42.000Z</time>
      </trkpt>
      <trkpt lat="46.43346" lon="6.10028">
        <ele>1555.7</ele>
        <time>2012-08-21T17:40:45.000Z</time>
      </trkpt>
      <trkpt lat="46.43348" lon="6.10022">
        <ele>1554.6</ele>
        <time>2012-08-21T17:40:48.000Z</time>
      </trkpt>
      <trkpt lat="46.4335" lon="6.10016">
        <ele>1554.7</ele>
        <time>2012-08-21T17:40:51.000Z</time>
      </trkpt>
      <trkpt lat="46.43352" lon="6.10008">
        <ele>1554.7</ele>
        <time>2012-08-21T17:40:56.000Z</time>
      </trkpt>
      <trkpt lat="46.4335" lon="6.10001">
        <ele>1554.7</ele>
        <time>2012-08-21T17:41:00.000Z</time>
      </trkpt>
      <trkpt lat="46.43349" lon="6.09994">
        <ele>1554.7</ele>
        <time>2012-08-21T17:41:04.000Z</time>
      </trkpt>
      <trkpt lat="46.4335" lon="6.09986">
        <ele>1554.7</ele>
        <time>2012-08-21T17:41:08.000Z</time>
      </trkpt>
      <trkpt lat="46.43352" lon="6.09978">
        <ele>1554.7</ele>
        <time>2012-08-21T17:41:12.000Z</time>
      </trkpt>
      <trkpt lat="46.43356" lon="6.09975">
        <ele>1554.7</ele>
        <time>2012-08-21T17:41:14.000Z</time>
      </trkpt>
      <trkpt lat="46.43363" lon="6.0997">
        <ele>1554.8</ele>
        <time>2012-08-21T17:41:16.000Z</time>
      </trkpt>
      <trkpt lat="46.43367" lon="6.09967">
        <ele>1554.9</ele>
        <time>2012-08-21T17:41:17.000Z</time>
      </trkpt>
      <trkpt lat="46.43371" lon="6.09962">
        <ele>1551.8</ele>
        <time>2012-08-21T17:41:18.000Z</time>
      </trkpt>
      <trkpt lat="46.43374" lon="6.09956">
        <ele>1550.4</ele>
        <time>2012-08-21T17:41:19.000Z</time>
      </trkpt>
      <trkpt lat="46.43379" lon="6.09946">
        <ele>1550.5</ele>
        <time>2012-08-21T17:41:21.000Z</time>
      </trkpt>
      <trkpt lat="46.43392" lon="6.09921">
        <ele>1547.1</ele>
        <time>2012-08-21T17:41:30.000Z</time>
      </trkpt>
      <trkpt lat="46.43396" lon="6.09917">
        <ele>1546.7</ele>
        <time>2012-08-21T17:41:33.000Z</time>
      </trkpt>
      <trkpt lat="46.43402" lon="6.09916">
        <ele>1546.7</ele>
        <time>2012-08-21T17:41:38.000Z</time>
      </trkpt>
      <trkpt lat="46.43406" lon="6.09913">
        <ele>1546.6</ele>
        <time>2012-08-21T17:41:40.000Z</time>
      </trkpt>
      <trkpt lat="46.4341" lon="6.09908">
        <ele>1539.4</ele>
        <time>2012-08-21T17:41:43.000Z</time>
      </trkpt>
      <trkpt lat="46.43423" lon="6.09894">
        <ele>1539.5</ele>
        <time>2012-08-21T17:41:54.000Z</time>
      </trkpt>
      <trkpt lat="46.43429" lon="6.09889">
        <ele>1538</ele>
        <time>2012-08-21T17:41:56.000Z</time>
      </trkpt>
      <trkpt lat="46.43435" lon="6.09885">
        <ele>1534.7</ele>
        <time>2012-08-21T17:41:58.000Z</time>
      </trkpt>
      <trkpt lat="46.43439" lon="6.09881">
        <ele>1534.3</ele>
        <time>2012-08-21T17:42:00.000Z</time>
      </trkpt>
      <trkpt lat="46.43444" lon="6.09876">
        <ele>1532.8</ele>
        <time>2012-08-21T17:42:02.000Z</time>
      </trkpt>
      <trkpt lat="46.43448" lon="6.09872">
        <ele>1530.1</ele>
        <time>2012-08-21T17:42:04.000Z</time>
      </trkpt>
      <trkpt lat="46.43453" lon="6.09866">
        <ele>1526.2</ele>
        <time>2012-08-21T17:42:07.000Z</time>
      </trkpt>
      <trkpt lat="46.43457" lon="6.09862">
        <ele>1525.7</ele>
        <time>2012-08-21T17:42:09.000Z</time>
      </trkpt>
      <trkpt lat="46.43461" lon="6.09858">
        <ele>1523.7</ele>
        <time>2012-08-21T17:42:12.000Z</time>
      </trkpt>
      <trkpt lat="46.43466" lon="6.09854">
        <ele>1521.8</ele>
        <time>2012-08-21T17:42:15.000Z</time>
      </trkpt>
      <trkpt lat="46.43471" lon="6.09852">
        <ele>1520</ele>
        <time>2012-08-21T17:42:19.000Z</time>
      </trkpt>
      <trkpt lat="46.43476" lon="6.09848">
        <ele>1518.3</ele>
        <time>2012-08-21T17:42:22.000Z</time>
      </trkpt>
      <trkpt lat="46.4348" lon="6.09844">
        <ele>1516.1</ele>
        <time>2012-08-21T17:42:25.000Z</time>
      </trkpt>
      <trkpt lat="46.43485" lon="6.09839">
        <ele>1511.4</ele>
        <time>2012-08-21T17:42:28.000Z</time>
      </trkpt>
      <trkpt lat="46.43489" lon="6.09835">
        <ele>1511.7</ele>
        <time>2012-08-21T17:42:30.000Z</time>
      </trkpt>
      <trkpt lat="46.43493" lon="6.0983">
        <ele>1510.9</ele>
        <time>2012-08-21T17:42:32.000Z</time>
      </trkpt>
      <trkpt lat="46.43497" lon="6.09825">
        <ele>1510.8</ele>
        <time>2012-08-21T17:42:34.000Z</time>
      </trkpt>
      <trkpt lat="46.43502" lon="6.09821">
        <ele>1509.8</ele>
        <time>2012-08-21T17:42:36.000Z</time>
      </trkpt>
      <trkpt lat="46.43509" lon="6.09816">
        <ele>1507.3</ele>
        <time>2012-08-21T17:42:39.000Z</time>
      </trkpt>
      <trkpt lat="46.43514" lon="6.09812">
        <ele>1507.2</ele>
        <time>2012-08-21T17:42:41.000Z</time>
      </trkpt>
      <trkpt lat="46.4352" lon="6.09808">
        <ele>1506.4</ele>
        <time>2012-08-21T17:42:43.000Z</time>
      </trkpt>
      <trkpt lat="46.43523" lon="6.09802">
        <ele>1502.6</ele>
        <time>2012-08-21T17:42:45.000Z</time>
      </trkpt>
      <trkpt lat="46.43526" lon="6.09798">
        <ele>1499.7</ele>
        <time>2012-08-21T17:42:47.000Z</time>
      </trkpt>
      <trkpt lat="46.4353" lon="6.09793">
        <ele>1501.7</ele>
        <time>2012-08-21T17:42:49.000Z</time>
      </trkpt>
      <trkpt lat="46.43534" lon="6.09787">
        <ele>1502.1</ele>
        <time>2012-08-21T17:42:51.000Z</time>
      </trkpt>
      <trkpt lat="46.43539" lon="6.09782">
        <ele>1501.6</ele>
        <time>2012-08-21T17:42:53.000Z</time>
      </trkpt>
      <trkpt lat="46.43544" lon="6.09776">
        <ele>1498.1</ele>
        <time>2012-08-21T17:42:55.000Z</time>
      </trkpt>
      <trkpt lat="46.43547" lon="6.09772">
        <ele>1497.3</ele>
        <time>2012-08-21T17:42:57.000Z</time>
      </trkpt>
      <trkpt lat="46.43552" lon="6.09767">
        <ele>1495.7</ele>
        <time>2012-08-21T17:42:59.000Z</time>
      </trkpt>
      <trkpt lat="46.43558" lon="6.09762">
        <ele>1495.5</ele>
        <time>2012-08-21T17:43:01.000Z</time>
      </trkpt>
      <trkpt lat="46.43563" lon="6.09757">
        <ele>1493.9</ele>
        <time>2012-08-21T17:43:03.000Z</time>
      </trkpt>
      <trkpt lat="46.43567" lon="6.09753">
        <ele>1494</ele>
        <time>2012-08-21T17:43:05.000Z</time>
      </trkpt>
      <trkpt lat="46.4357" lon="6.09748">
        <ele>1494.3</ele>
        <time>2012-08-21T17:43:07.000Z</time>
      </trkpt>
      <trkpt lat="46.43572" lon="6.09743">
        <ele>1493.2</ele>
        <time>2012-08-21T17:43:09.000Z</time>
      </trkpt>
      <trkpt lat="46.43576" lon="6.09738">
        <ele>1493.2</ele>
        <time>2012-08-21T17:43:11.000Z</time>
      </trkpt>
      <trkpt lat="46.4358" lon="6.09733">
        <ele>1491.9</ele>
        <time>2012-08-21T17:43:13.000Z</time>
      </trkpt>
      <trkpt lat="46.43584" lon="6.09726">
        <ele>1491.5</ele>
        <time>2012-08-21T17:43:16.000Z</time>
      </trkpt>
      <trkpt lat="46.43588" lon="6.0972">
        <ele>1491.8</ele>
        <time>2012-08-21T17:43:19.000Z</time>
      </trkpt>
      <trkpt lat="46.43591" lon="6.09715">
        <ele>1491</ele>
        <time>2012-08-21T17:43:21.000Z</time>
      </trkpt>
      <trkpt lat="46.43595" lon="6.09709">
        <ele>1490.5</ele>
        <time>2012-08-21T17:43:23.000Z</time>
      </trkpt>
      <trkpt lat="46.43599" lon="6.09704">
        <ele>1490.1</ele>
        <time>2012-08-21T17:43:25.000Z</time>
      </trkpt>
      <trkpt lat="46.43603" lon="6.097">
        <ele>1489.6</ele>
        <time>2012-08-21T17:43:27.000Z</time>
      </trkpt>
      <trkpt lat="46.43608" lon="6.09695">
        <ele>1489.5</ele>
        <time>2012-08-21T17:43:30.000Z</time>
      </trkpt>
      <trkpt lat="46.43612" lon="6.09691">
        <ele>1487.1</ele>
        <time>2012-08-21T17:43:33.000Z</time>
      </trkpt>
      <trkpt lat="46.43618" lon="6.09684">
        <ele>1486.3</ele>
        <time>2012-08-21T17:43:38.000Z</time>
      </trkpt>
      <trkpt lat="46.43623" lon="6.09676">
        <ele>1486.2</ele>
        <time>2012-08-21T17:43:45.000Z</time>
      </trkpt>
      <trkpt lat="46.43626" lon="6.09669">
        <ele>1485.4</ele>
        <time>2012-08-21T17:43:48.000Z</time>
      </trkpt>
      <trkpt lat="46.43631" lon="6.09664">
        <ele>1483.3</ele>
        <time>2012-08-21T17:43:50.000Z</time>
      </trkpt>
      <trkpt lat="46.43638" lon="6.09655">
        <ele>1483.3</ele>
        <time>2012-08-21T17:43:53.382Z</time>
      </trkpt>
      <trkpt lat="46.43644" lon="6.09649">
        <ele>1483.2</ele>
        <time>2012-08-21T17:43:56.000Z</time>
      </trkpt>
      <trkpt lat="46.43649" lon="6.09642">
        <ele>1483</ele>
        <time>2012-08-21T17:43:58.000Z</time>
      </trkpt>
      <trkpt lat="46.43653" lon="6.09633">
        <ele>1482.3</ele>
        <time>2012-08-21T17:44:00.000Z</time>
      </trkpt>
      <trkpt lat="46.43657" lon="6.09625">
        <ele>1482.5</ele>
        <time>2012-08-21T17:44:02.000Z</time>
      </trkpt>
      <trkpt lat="46.43659" lon="6.09618">
        <ele>1482.2</ele>
        <time>2012-08-21T17:44:04.000Z</time>
      </trkpt>
      <trkpt lat="46.43659" lon="6.09612">
        <ele>1482.1</ele>
        <time>2012-08-21T17:44:12.000Z</time>
      </trkpt>
      <trkpt lat="46.43664" lon="6.09612">
        <ele>1479.5</ele>
        <time>2012-08-21T17:44:22.000Z</time>
      </trkpt>
      <trkpt lat="46.43669" lon="6.09612">
        <ele>1480.1</ele>
        <time>2012-08-21T17:44:24.000Z</time>
      </trkpt>
      <trkpt lat="46.43676" lon="6.09614">
        <ele>1479</ele>
        <time>2012-08-21T17:44:26.000Z</time>
      </trkpt>
      <trkpt lat="46.43682" lon="6.09616">
        <ele>1477.4</ele>
        <time>2012-08-21T17:44:29.000Z</time>
      </trkpt>
      <trkpt lat="46.43687" lon="6.09614">
        <ele>1476.1</ele>
        <time>2012-08-21T17:44:32.000Z</time>
      </trkpt>
      <trkpt lat="46.43692" lon="6.0961">
        <ele>1475.1</ele>
        <time>2012-08-21T17:44:36.000Z</time>
      </trkpt>
      <trkpt lat="46.43696" lon="6.09606">
        <ele>1474.8</ele>
        <time>2012-08-21T17:44:41.000Z</time>
      </trkpt>
      <trkpt lat="46.43699" lon="6.09601">
        <ele>1472.9</ele>
        <time>2012-08-21T17:44:46.000Z</time>
      </trkpt>
      <trkpt lat="46.43703" lon="6.09595">
        <ele>1473.4</ele>
        <time>2012-08-21T17:44:50.000Z</time>
      </trkpt>
      <trkpt lat="46.43704" lon="6.09589">
        <ele>1468.8</ele>
        <time>2012-08-21T17:44:53.000Z</time>
      </trkpt>
      <trkpt lat="46.43707" lon="6.09582">
        <ele>1468.4</ele>
        <time>2012-08-21T17:44:57.000Z</time>
      </trkpt>
      <trkpt lat="46.43712" lon="6.09579">
        <ele>1467.5</ele>
        <time>2012-08-21T17:45:00.000Z</time>
      </trkpt>
      <trkpt lat="46.43716" lon="6.09575">
        <ele>1466.7</ele>
        <time>2012-08-21T17:45:06.000Z</time>
      </trkpt>
      <trkpt lat="46.4372" lon="6.09572">
        <ele>1464.6</ele>
        <time>2012-08-21T17:45:11.000Z</time>
      </trkpt>
      <trkpt lat="46.43725" lon="6.09569">
        <ele>1462.6</ele>
        <time>2012-08-21T17:45:15.053Z</time>
      </trkpt>
      <trkpt lat="46.43728" lon="6.09566">
        <ele>1459.3</ele>
        <time>2012-08-21T17:45:18.000Z</time>
      </trkpt>
      <trkpt lat="46.43732" lon="6.09561">
        <ele>1455.9</ele>
        <time>2012-08-21T17:45:24.000Z</time>
      </trkpt>
      <trkpt lat="46.43735" lon="6.09556">
        <ele>1454.5</ele>
        <time>2012-08-21T17:45:30.000Z</time>
      </trkpt>
      <trkpt lat="46.4374" lon="6.09551">
        <ele>1451.4</ele>
        <time>2012-08-21T17:45:35.000Z</time>
      </trkpt>
      <trkpt lat="46.43746" lon="6.09549">
        <ele>1450.5</ele>
        <time>2012-08-21T17:45:39.000Z</time>
      </trkpt>
      <trkpt lat="46.43751" lon="6.09548">
        <ele>1449.6</ele>
        <time>2012-08-21T17:45:43.000Z</time>
      </trkpt>
      <trkpt lat="46.43755" lon="6.09544">
        <ele>1446.9</ele>
        <time>2012-08-21T17:45:48.000Z</time>
      </trkpt>
      <trkpt lat="46.43758" lon="6.09539">
        <ele>1446</ele>
        <time>2012-08-21T17:45:52.000Z</time>
      </trkpt>
      <trkpt lat="46.43762" lon="6.09535">
        <ele>1444.4</ele>
        <time>2012-08-21T17:45:57.000Z</time>
      </trkpt>
      <trkpt lat="46.43767" lon="6.09532">
        <ele>1444.4</ele>
        <time>2012-08-21T17:46:01.000Z</time>
      </trkpt>
      <trkpt lat="46.43773" lon="6.09531">
        <ele>1445.6</ele>
        <time>2012-08-21T17:46:05.000Z</time>
      </trkpt>
      <trkpt lat="46.43779" lon="6.09531">
        <ele>1446.6</ele>
        <time>2012-08-21T17:46:08.000Z</time>
      </trkpt>
      <trkpt lat="46.4378" lon="6.09524">
        <ele>1443.3</ele>
        <time>2012-08-21T17:46:13.000Z</time>
      </trkpt>
      <trkpt lat="46.43781" lon="6.09518">
        <ele>1443.7</ele>
        <time>2012-08-21T17:46:18.000Z</time>
      </trkpt>
      <trkpt lat="46.43786" lon="6.09513">
        <ele>1443</ele>
        <time>2012-08-21T17:46:22.000Z</time>
      </trkpt>
      <trkpt lat="46.43791" lon="6.0951">
        <ele>1440.8</ele>
        <time>2012-08-21T17:46:25.000Z</time>
      </trkpt>
      <trkpt lat="46.43796" lon="6.09506">
        <ele>1440</ele>
        <time>2012-08-21T17:46:27.000Z</time>
      </trkpt>
      <trkpt lat="46.438" lon="6.09502">
        <ele>1440.1</ele>
        <time>2012-08-21T17:46:29.000Z</time>
      </trkpt>
      <trkpt lat="46.43803" lon="6.09496">
        <ele>1438.2</ele>
        <time>2012-08-21T17:46:31.000Z</time>
      </trkpt>
      <trkpt lat="46.43807" lon="6.09492">
        <ele>1436.6</ele>
        <time>2012-08-21T17:46:33.000Z</time>
      </trkpt>
      <trkpt lat="46.43812" lon="6.09486">
        <ele>1434.2</ele>
        <time>2012-08-21T17:46:36.000Z</time>
      </trkpt>
      <trkpt lat="46.43816" lon="6.09483">
        <ele>1434.3</ele>
        <time>2012-08-21T17:46:38.000Z</time>
      </trkpt>
      <trkpt lat="46.43821" lon="6.0948">
        <ele>1434.5</ele>
        <time>2012-08-21T17:46:40.000Z</time>
      </trkpt>
      <trkpt lat="46.43826" lon="6.09474">
        <ele>1434.5</ele>
        <time>2012-08-21T17:46:43.000Z</time>
      </trkpt>
      <trkpt lat="46.43829" lon="6.09468">
        <ele>1433</ele>
        <time>2012-08-21T17:46:47.000Z</time>
      </trkpt>
      <trkpt lat="46.43834" lon="6.09465">
        <ele>1433.9</ele>
        <time>2012-08-21T17:46:50.000Z</time>
      </trkpt>
      <trkpt lat="46.43839" lon="6.09463">
        <ele>1433.8</ele>
        <time>2012-08-21T17:46:53.000Z</time>
      </trkpt>
      <trkpt lat="46.43845" lon="6.09464">
        <ele>1432.9</ele>
        <time>2012-08-21T17:46:57.000Z</time>
      </trkpt>
      <trkpt lat="46.43849" lon="6.09463">
        <ele>1430.2</ele>
        <time>2012-08-21T17:47:01.000Z</time>
      </trkpt>
      <trkpt lat="46.43854" lon="6.09462">
        <ele>1429.3</ele>
        <time>2012-08-21T17:47:05.000Z</time>
      </trkpt>
      <trkpt lat="46.43858" lon="6.09456">
        <ele>1425.4</ele>
        <time>2012-08-21T17:47:10.000Z</time>
      </trkpt>
      <trkpt lat="46.4386" lon="6.09449">
        <ele>1421.4</ele>
        <time>2012-08-21T17:47:15.000Z</time>
      </trkpt>
      <trkpt lat="46.43864" lon="6.09443">
        <ele>1420.1</ele>
        <time>2012-08-21T17:47:19.000Z</time>
      </trkpt>
      <trkpt lat="46.43868" lon="6.09439">
        <ele>1418.5</ele>
        <time>2012-08-21T17:47:23.000Z</time>
      </trkpt>
      <trkpt lat="46.4387" lon="6.09433">
        <ele>1416.6</ele>
        <time>2012-08-21T17:47:28.000Z</time>
      </trkpt>
      <trkpt lat="46.43873" lon="6.09428">
        <ele>1415.9</ele>
        <time>2012-08-21T17:47:31.000Z</time>
      </trkpt>
      <trkpt lat="46.43877" lon="6.09424">
        <ele>1414.4</ele>
        <time>2012-08-21T17:47:34.000Z</time>
      </trkpt>
      <trkpt lat="46.43881" lon="6.09421">
        <ele>1411.6</ele>
        <time>2012-08-21T17:47:38.000Z</time>
      </trkpt>
      <trkpt lat="46.43882" lon="6.09414">
        <ele>1408.6</ele>
        <time>2012-08-21T17:47:46.000Z</time>
      </trkpt>
      <trkpt lat="46.43886" lon="6.09411">
        <ele>1406.8</ele>
        <time>2012-08-21T17:47:51.000Z</time>
      </trkpt>
      <trkpt lat="46.4389" lon="6.09405">
        <ele>1404.6</ele>
        <time>2012-08-21T17:47:56.000Z</time>
      </trkpt>
      <trkpt lat="46.43892" lon="6.09399">
        <ele>1401.6</ele>
        <time>2012-08-21T17:47:59.000Z</time>
      </trkpt>
      <trkpt lat="46.43898" lon="6.09395">
        <ele>1401.8</ele>
        <time>2012-08-21T17:48:02.000Z</time>
      </trkpt>
      <trkpt lat="46.43903" lon="6.09391">
        <ele>1401.5</ele>
        <time>2012-08-21T17:48:05.000Z</time>
      </trkpt>
      <trkpt lat="46.43908" lon="6.09388">
        <ele>1398.9</ele>
        <time>2012-08-21T17:48:08.000Z</time>
      </trkpt>
      <trkpt lat="46.43912" lon="6.09391">
        <ele>1398.5</ele>
        <time>2012-08-21T17:48:13.000Z</time>
      </trkpt>
      <trkpt lat="46.43917" lon="6.0939">
        <ele>1397</ele>
        <time>2012-08-21T17:48:18.000Z</time>
      </trkpt>
      <trkpt lat="46.43921" lon="6.09387">
        <ele>1395.7</ele>
        <time>2012-08-21T17:48:21.000Z</time>
      </trkpt>
      <trkpt lat="46.43926" lon="6.09384">
        <ele>1392.6</ele>
        <time>2012-08-21T17:48:25.000Z</time>
      </trkpt>
      <trkpt lat="46.4393" lon="6.09381">
        <ele>1388.8</ele>
        <time>2012-08-21T17:48:28.000Z</time>
      </trkpt>
      <trkpt lat="46.43935" lon="6.09377">
        <ele>1387.6</ele>
        <time>2012-08-21T17:48:32.000Z</time>
      </trkpt>
      <trkpt lat="46.43938" lon="6.09371">
        <ele>1386.5</ele>
        <time>2012-08-21T17:48:37.000Z</time>
      </trkpt>
      <trkpt lat="46.43942" lon="6.09366">
        <ele>1387.6</ele>
        <time>2012-08-21T17:48:41.000Z</time>
      </trkpt>
      <trkpt lat="46.43947" lon="6.09362">
        <ele>1386.4</ele>
        <time>2012-08-21T17:48:44.000Z</time>
      </trkpt>
      <trkpt lat="46.43948" lon="6.09355">
        <ele>1387</ele>
        <time>2012-08-21T17:48:48.000Z</time>
      </trkpt>
      <trkpt lat="46.43949" lon="6.09347">
        <ele>1384.7</ele>
        <time>2012-08-21T17:48:52.000Z</time>
      </trkpt>
      <trkpt lat="46.4395" lon="6.09339">
        <ele>1383.2</ele>
        <time>2012-08-21T17:48:56.000Z</time>
      </trkpt>
      <trkpt lat="46.43951" lon="6.09331">
        <ele>1380.1</ele>
        <time>2012-08-21T17:48:59.000Z</time>
      </trkpt>
      <trkpt lat="46.43954" lon="6.09322">
        <ele>1378.5</ele>
        <time>2012-08-21T17:49:02.000Z</time>
      </trkpt>
      <trkpt lat="46.43957" lon="6.09316">
        <ele>1375.8</ele>
        <time>2012-08-21T17:49:04.000Z</time>
      </trkpt>
      <trkpt lat="46.4396" lon="6.0931">
        <ele>1373.8</ele>
        <time>2012-08-21T17:49:08.000Z</time>
      </trkpt>
      <trkpt lat="46.43963" lon="6.09302">
        <ele>1370.7</ele>
        <time>2012-08-21T17:49:12.000Z</time>
      </trkpt>
      <trkpt lat="46.43966" lon="6.09297">
        <ele>1370.4</ele>
        <time>2012-08-21T17:49:15.000Z</time>
      </trkpt>
      <trkpt lat="46.43968" lon="6.0929">
        <ele>1369</ele>
        <time>2012-08-21T17:49:19.000Z</time>
      </trkpt>
      <trkpt lat="46.43972" lon="6.09284">
        <ele>1367</ele>
        <time>2012-08-21T17:49:23.000Z</time>
      </trkpt>
      <trkpt lat="46.43977" lon="6.09281">
        <ele>1366.1</ele>
        <time>2012-08-21T17:49:26.000Z</time>
      </trkpt>
      <trkpt lat="46.43983" lon="6.09278">
        <ele>1366.9</ele>
        <time>2012-08-21T17:49:29.000Z</time>
      </trkpt>
      <trkpt lat="46.43987" lon="6.09277">
        <ele>1366.5</ele>
        <time>2012-08-21T17:49:31.000Z</time>
      </trkpt>
      <trkpt lat="46.43993" lon="6.09274">
        <ele>1364.4</ele>
        <time>2012-08-21T17:49:34.000Z</time>
      </trkpt>
      <trkpt lat="46.43999" lon="6.09271">
        <ele>1361.8</ele>
        <time>2012-08-21T17:49:37.000Z</time>
      </trkpt>
      <trkpt lat="46.44004" lon="6.09267">
        <ele>1362.8</ele>
        <time>2012-08-21T17:49:40.000Z</time>
      </trkpt>
      <trkpt lat="46.44007" lon="6.09261">
        <ele>1362</ele>
        <time>2012-08-21T17:49:44.000Z</time>
      </trkpt>
      <trkpt lat="46.4401" lon="6.09256">
        <ele>1361</ele>
        <time>2012-08-21T17:49:48.000Z</time>
      </trkpt>
      <trkpt lat="46.4401" lon="6.09249">
        <ele>1351.5</ele>
        <time>2012-08-21T17:49:55.000Z</time>
      </trkpt>
      <trkpt lat="46.44013" lon="6.09243">
        <ele>1348.7</ele>
        <time>2012-08-21T17:50:00.000Z</time>
      </trkpt>
      <trkpt lat="46.44016" lon="6.09237">
        <ele>1347.8</ele>
        <time>2012-08-21T17:50:03.000Z</time>
      </trkpt>
      <trkpt lat="46.44018" lon="6.0923">
        <ele>1343.2</ele>
        <time>2012-08-21T17:50:07.000Z</time>
      </trkpt>
      <trkpt lat="46.44021" lon="6.09224">
        <ele>1343.7</ele>
        <time>2012-08-21T17:50:13.000Z</time>
      </trkpt>
      <trkpt lat="46.44025" lon="6.0922">
        <ele>1340.9</ele>
        <time>2012-08-21T17:50:16.000Z</time>
      </trkpt>
      <trkpt lat="46.44029" lon="6.09214">
        <ele>1341</ele>
        <time>2012-08-21T17:50:19.000Z</time>
      </trkpt>
      <trkpt lat="46.4403" lon="6.09207">
        <ele>1340.2</ele>
        <time>2012-08-21T17:50:22.000Z</time>
      </trkpt>
      <trkpt lat="46.44034" lon="6.09203">
        <ele>1341.3</ele>
        <time>2012-08-21T17:50:28.000Z</time>
      </trkpt>
      <trkpt lat="46.44037" lon="6.09196">
        <ele>1343.3</ele>
        <time>2012-08-21T17:50:31.000Z</time>
      </trkpt>
      <trkpt lat="46.44042" lon="6.09188">
        <ele>1342.4</ele>
        <time>2012-08-21T17:50:34.000Z</time>
      </trkpt>
      <trkpt lat="46.44045" lon="6.09185">
        <ele>1343.8</ele>
        <time>2012-08-21T17:50:36.000Z</time>
      </trkpt>
      <trkpt lat="46.4405" lon="6.09182">
        <ele>1344.2</ele>
        <time>2012-08-21T17:50:38.000Z</time>
      </trkpt>
      <trkpt lat="46.44055" lon="6.09176">
        <ele>1338.2</ele>
        <time>2012-08-21T17:50:41.000Z</time>
      </trkpt>
      <trkpt lat="46.4406" lon="6.0917">
        <ele>1336.8</ele>
        <time>2012-08-21T17:50:44.000Z</time>
      </trkpt>
      <trkpt lat="46.44064" lon="6.09166">
        <ele>1336.6</ele>
        <time>2012-08-21T17:50:46.000Z</time>
      </trkpt>
      <trkpt lat="46.44069" lon="6.09161">
        <ele>1334.5</ele>
        <time>2012-08-21T17:50:49.000Z</time>
      </trkpt>
      <trkpt lat="46.44073" lon="6.09157">
        <ele>1335</ele>
        <time>2012-08-21T17:50:51.000Z</time>
      </trkpt>
      <trkpt lat="46.44078" lon="6.09154">
        <ele>1334.7</ele>
        <time>2012-08-21T17:50:53.000Z</time>
      </trkpt>
      <trkpt lat="46.44083" lon="6.09151">
        <ele>1335.3</ele>
        <time>2012-08-21T17:50:55.000Z</time>
      </trkpt>
      <trkpt lat="46.44087" lon="6.09148">
        <ele>1335.5</ele>
        <time>2012-08-21T17:50:57.000Z</time>
      </trkpt>
      <trkpt lat="46.44092" lon="6.09147">
        <ele>1334.4</ele>
        <time>2012-08-21T17:50:59.000Z</time>
      </trkpt>
      <trkpt lat="46.44097" lon="6.09144">
        <ele>1333.2</ele>
        <time>2012-08-21T17:51:02.000Z</time>
      </trkpt>
      <trkpt lat="46.44102" lon="6.09139">
        <ele>1332.5</ele>
        <time>2012-08-21T17:51:05.000Z</time>
      </trkpt>
      <trkpt lat="46.44106" lon="6.09134">
        <ele>1331.6</ele>
        <time>2012-08-21T17:51:08.000Z</time>
      </trkpt>
      <trkpt lat="46.44111" lon="6.09129">
        <ele>1330.7</ele>
        <time>2012-08-21T17:51:11.000Z</time>
      </trkpt>
      <trkpt lat="46.44114" lon="6.09124">
        <ele>1329.6</ele>
        <time>2012-08-21T17:51:14.000Z</time>
      </trkpt>
      <trkpt lat="46.44118" lon="6.09119">
        <ele>1329.1</ele>
        <time>2012-08-21T17:51:17.000Z</time>
      </trkpt>
      <trkpt lat="46.44124" lon="6.09117">
        <ele>1328.8</ele>
        <time>2012-08-21T17:51:20.000Z</time>
      </trkpt>
      <trkpt lat="46.44128" lon="6.09113">
        <ele>1327.6</ele>
        <time>2012-08-21T17:51:22.000Z</time>
      </trkpt>
      <trkpt lat="46.44133" lon="6.09109">
        <ele>1327.4</ele>
        <time>2012-08-21T17:51:24.000Z</time>
      </trkpt>
      <trkpt lat="46.44137" lon="6.09105">
        <ele>1327.5</ele>
        <time>2012-08-21T17:51:26.000Z</time>
      </trkpt>
      <trkpt lat="46.44141" lon="6.09099">
        <ele>1327.6</ele>
        <time>2012-08-21T17:51:29.000Z</time>
      </trkpt>
      <trkpt lat="46.44144" lon="6.09093">
        <ele>1322.7</ele>
        <time>2012-08-21T17:51:32.000Z</time>
      </trkpt>
      <trkpt lat="46.44147" lon="6.09087">
        <ele>1320.7</ele>
        <time>2012-08-21T17:51:35.000Z</time>
      </trkpt>
      <trkpt lat="46.4415" lon="6.09078">
        <ele>1320.7</ele>
        <time>2012-08-21T17:51:38.000Z</time>
      </trkpt>
      <trkpt lat="46.44151" lon="6.09072">
        <ele>1316.3</ele>
        <time>2012-08-21T17:51:41.000Z</time>
      </trkpt>
      <trkpt lat="46.44155" lon="6.09065">
        <ele>1316.8</ele>
        <time>2012-08-21T17:51:44.000Z</time>
      </trkpt>
      <trkpt lat="46.44157" lon="6.09058">
        <ele>1317.7</ele>
        <time>2012-08-21T17:51:47.000Z</time>
      </trkpt>
      <trkpt lat="46.44159" lon="6.0905">
        <ele>1317.1</ele>
        <time>2012-08-21T17:51:50.000Z</time>
      </trkpt>
      <trkpt lat="46.44161" lon="6.09043">
        <ele>1317.2</ele>
        <time>2012-08-21T17:51:53.000Z</time>
      </trkpt>
      <trkpt lat="46.44164" lon="6.09036">
        <ele>1316.2</ele>
        <time>2012-08-21T17:51:56.000Z</time>
      </trkpt>
      <trkpt lat="46.44168" lon="6.09032">
        <ele>1316.2</ele>
        <time>2012-08-21T17:51:58.000Z</time>
      </trkpt>
      <trkpt lat="46.44174" lon="6.09028">
        <ele>1315.5</ele>
        <time>2012-08-21T17:52:00.000Z</time>
      </trkpt>
      <trkpt lat="46.44181" lon="6.09026">
        <ele>1315.1</ele>
        <time>2012-08-21T17:52:02.000Z</time>
      </trkpt>
      <trkpt lat="46.44188" lon="6.09024">
        <ele>1314.7</ele>
        <time>2012-08-21T17:52:04.000Z</time>
      </trkpt>
      <trkpt lat="46.44194" lon="6.09022">
        <ele>1313.9</ele>
        <time>2012-08-21T17:52:06.000Z</time>
      </trkpt>
      <trkpt lat="46.44199" lon="6.09019">
        <ele>1313.3</ele>
        <time>2012-08-21T17:52:08.000Z</time>
      </trkpt>
      <trkpt lat="46.44204" lon="6.09016">
        <ele>1312.9</ele>
        <time>2012-08-21T17:52:10.000Z</time>
      </trkpt>
      <trkpt lat="46.4421" lon="6.09013">
        <ele>1312.6</ele>
        <time>2012-08-21T17:52:12.000Z</time>
      </trkpt>
      <trkpt lat="46.44216" lon="6.09011">
        <ele>1312.3</ele>
        <time>2012-08-21T17:52:14.000Z</time>
      </trkpt>
      <trkpt lat="46.44221" lon="6.09008">
        <ele>1311.7</ele>
        <time>2012-08-21T17:52:16.000Z</time>
      </trkpt>
      <trkpt lat="46.44227" lon="6.09005">
        <ele>1311.1</ele>
        <time>2012-08-21T17:52:18.000Z</time>
      </trkpt>
      <trkpt lat="46.44232" lon="6.09002">
        <ele>1310.7</ele>
        <time>2012-08-21T17:52:20.000Z</time>
      </trkpt>
      <trkpt lat="46.44237" lon="6.08997">
        <ele>1308.3</ele>
        <time>2012-08-21T17:52:22.000Z</time>
      </trkpt>
      <trkpt lat="46.44241" lon="6.08991">
        <ele>1309</ele>
        <time>2012-08-21T17:52:24.000Z</time>
      </trkpt>
      <trkpt lat="46.44244" lon="6.08985">
        <ele>1308.6</ele>
        <time>2012-08-21T17:52:26.000Z</time>
      </trkpt>
      <trkpt lat="46.44248" lon="6.08979">
        <ele>1309.4</ele>
        <time>2012-08-21T17:52:28.000Z</time>
      </trkpt>
      <trkpt lat="46.4425" lon="6.08972">
        <ele>1308.8</ele>
        <time>2012-08-21T17:52:30.000Z</time>
      </trkpt>
      <trkpt lat="46.4425" lon="6.08965">
        <ele>1305.3</ele>
        <time>2012-08-21T17:52:32.000Z</time>
      </trkpt>
      <trkpt lat="46.4425" lon="6.08959">
        <ele>1305.1</ele>
        <time>2012-08-21T17:52:34.000Z</time>
      </trkpt>
      <trkpt lat="46.44253" lon="6.08951">
        <ele>1306.1</ele>
        <time>2012-08-21T17:52:36.000Z</time>
      </trkpt>
      <trkpt lat="46.44255" lon="6.08945">
        <ele>1305.9</ele>
        <time>2012-08-21T17:52:38.000Z</time>
      </trkpt>
      <trkpt lat="46.44257" lon="6.08938">
        <ele>1305</ele>
        <time>2012-08-21T17:52:40.000Z</time>
      </trkpt>
      <trkpt lat="46.44259" lon="6.0893">
        <ele>1305.6</ele>
        <time>2012-08-21T17:52:42.000Z</time>
      </trkpt>
      <trkpt lat="46.4426" lon="6.08924">
        <ele>1305.3</ele>
        <time>2012-08-21T17:52:44.000Z</time>
      </trkpt>
      <trkpt lat="46.44259" lon="6.08915">
        <ele>1305</ele>
        <time>2012-08-21T17:52:47.000Z</time>
      </trkpt>
      <trkpt lat="46.44256" lon="6.08908">
        <ele>1305.3</ele>
        <time>2012-08-21T17:52:51.000Z</time>
      </trkpt>
      <trkpt lat="46.44253" lon="6.08902">
        <ele>1306.3</ele>
        <time>2012-08-21T17:52:56.000Z</time>
      </trkpt>
      <trkpt lat="46.44252" lon="6.08895">
        <ele>1307</ele>
        <time>2012-08-21T17:53:00.000Z</time>
      </trkpt>
      <trkpt lat="46.44252" lon="6.08888">
        <ele>1308.4</ele>
        <time>2012-08-21T17:53:04.000Z</time>
      </trkpt>
      <trkpt lat="46.44255" lon="6.08882">
        <ele>1307.8</ele>
        <time>2012-08-21T17:53:07.000Z</time>
      </trkpt>
      <trkpt lat="46.44257" lon="6.08876">
        <ele>1310.5</ele>
        <time>2012-08-21T17:53:10.000Z</time>
      </trkpt>
      <trkpt lat="46.44259" lon="6.08868">
        <ele>1310.2</ele>
        <time>2012-08-21T17:53:14.000Z</time>
      </trkpt>
      <trkpt lat="46.44259" lon="6.08861">
        <ele>1309.3</ele>
        <time>2012-08-21T17:53:17.000Z</time>
      </trkpt>
      <trkpt lat="46.44258" lon="6.08853">
        <ele>1308.2</ele>
        <time>2012-08-21T17:53:21.000Z</time>
      </trkpt>
      <trkpt lat="46.44259" lon="6.08845">
        <ele>1308</ele>
        <time>2012-08-21T17:53:24.000Z</time>
      </trkpt>
      <trkpt lat="46.4426" lon="6.08836">
        <ele>1308.2</ele>
        <time>2012-08-21T17:53:27.000Z</time>
      </trkpt>
      <trkpt lat="46.44259" lon="6.08826">
        <ele>1307.2</ele>
        <time>2012-08-21T17:53:30.000Z</time>
      </trkpt>
      <trkpt lat="46.44259" lon="6.0882">
        <ele>1307.5</ele>
        <time>2012-08-21T17:53:32.000Z</time>
      </trkpt>
      <trkpt lat="46.44258" lon="6.08812">
        <ele>1306.2</ele>
        <time>2012-08-21T17:53:35.000Z</time>
      </trkpt>
      <trkpt lat="46.44259" lon="6.08804">
        <ele>1305.5</ele>
        <time>2012-08-21T17:53:40.000Z</time>
      </trkpt>
      <trkpt lat="46.44265" lon="6.08799">
        <ele>1305</ele>
        <time>2012-08-21T17:53:43.000Z</time>
      </trkpt>
      <trkpt lat="46.4427" lon="6.08793">
        <ele>1305</ele>
        <time>2012-08-21T17:53:45.000Z</time>
      </trkpt>
      <trkpt lat="46.44272" lon="6.08785">
        <ele>1303.4</ele>
        <time>2012-08-21T17:53:47.000Z</time>
      </trkpt>
      <trkpt lat="46.44274" lon="6.08777">
        <ele>1302.7</ele>
        <time>2012-08-21T17:53:49.000Z</time>
      </trkpt>
      <trkpt lat="46.44275" lon="6.08768">
        <ele>1302.5</ele>
        <time>2012-08-21T17:53:51.000Z</time>
      </trkpt>
      <trkpt lat="46.44277" lon="6.0876">
        <ele>1305.2</ele>
        <time>2012-08-21T17:53:53.000Z</time>
      </trkpt>
      <trkpt lat="46.44279" lon="6.08752">
        <ele>1305.6</ele>
        <time>2012-08-21T17:53:55.000Z</time>
      </trkpt>
      <trkpt lat="46.44282" lon="6.08744">
        <ele>1305.9</ele>
        <time>2012-08-21T17:53:57.000Z</time>
      </trkpt>
      <trkpt lat="46.44284" lon="6.08737">
        <ele>1305.9</ele>
        <time>2012-08-21T17:53:59.000Z</time>
      </trkpt>
      <trkpt lat="46.44285" lon="6.0873">
        <ele>1306</ele>
        <time>2012-08-21T17:54:01.000Z</time>
      </trkpt>
      <trkpt lat="46.44284" lon="6.0872">
        <ele>1304.6</ele>
        <time>2012-08-21T17:54:04.000Z</time>
      </trkpt>
      <trkpt lat="46.44287" lon="6.08713">
        <ele>1302.7</ele>
        <time>2012-08-21T17:54:07.000Z</time>
      </trkpt>
      <trkpt lat="46.44289" lon="6.08705">
        <ele>1300.9</ele>
        <time>2012-08-21T17:54:10.000Z</time>
      </trkpt>
      <trkpt lat="46.44289" lon="6.08699">
        <ele>1300.1</ele>
        <time>2012-08-21T17:54:12.000Z</time>
      </trkpt>
      <trkpt lat="46.44288" lon="6.08691">
        <ele>1300.4</ele>
        <time>2012-08-21T17:54:14.000Z</time>
      </trkpt>
      <trkpt lat="46.44288" lon="6.08683">
        <ele>1298.6</ele>
        <time>2012-08-21T17:54:16.000Z</time>
      </trkpt>
      <trkpt lat="46.44287" lon="6.08675">
        <ele>1294</ele>
        <time>2012-08-21T17:54:19.000Z</time>
      </trkpt>
      <trkpt lat="46.44287" lon="6.08667">
        <ele>1293.4</ele>
        <time>2012-08-21T17:54:22.000Z</time>
      </trkpt>
      <trkpt lat="46.44288" lon="6.08658">
        <ele>1292.5</ele>
        <time>2012-08-21T17:54:25.000Z</time>
      </trkpt>
      <trkpt lat="46.44289" lon="6.0865">
        <ele>1292.2</ele>
        <time>2012-08-21T17:54:27.000Z</time>
      </trkpt>
      <trkpt lat="46.44289" lon="6.08642">
        <ele>1293.2</ele>
        <time>2012-08-21T17:54:29.000Z</time>
      </trkpt>
      <trkpt lat="46.44288" lon="6.08633">
        <ele>1293</ele>
        <time>2012-08-21T17:54:31.000Z</time>
      </trkpt>
      <trkpt lat="46.44289" lon="6.08624">
        <ele>1292.4</ele>
        <time>2012-08-21T17:54:33.000Z</time>
      </trkpt>
      <trkpt lat="46.44289" lon="6.08616">
        <ele>1292.3</ele>
        <time>2012-08-21T17:54:35.000Z</time>
      </trkpt>
      <trkpt lat="46.4429" lon="6.08608">
        <ele>1292</ele>
        <time>2012-08-21T17:54:37.000Z</time>
      </trkpt>
      <trkpt lat="46.44291" lon="6.08599">
        <ele>1291.6</ele>
        <time>2012-08-21T17:54:39.000Z</time>
      </trkpt>
      <trkpt lat="46.44294" lon="6.08591">
        <ele>1290.6</ele>
        <time>2012-08-21T17:54:41.000Z</time>
      </trkpt>
      <trkpt lat="46.44296" lon="6.08582">
        <ele>1290.3</ele>
        <time>2012-08-21T17:54:43.000Z</time>
      </trkpt>
      <trkpt lat="46.44298" lon="6.08575">
        <ele>1290</ele>
        <time>2012-08-21T17:54:45.000Z</time>
      </trkpt>
      <trkpt lat="46.44302" lon="6.08567">
        <ele>1290.6</ele>
        <time>2012-08-21T17:54:48.000Z</time>
      </trkpt>
      <trkpt lat="46.44306" lon="6.08563">
        <ele>1290</ele>
        <time>2012-08-21T17:54:51.000Z</time>
      </trkpt>
      <trkpt lat="46.44304" lon="6.08556">
        <ele>1293.1</ele>
        <time>2012-08-21T17:54:59.000Z</time>
      </trkpt>
      <trkpt lat="46.44298" lon="6.08554">
        <ele>1292.4</ele>
        <time>2012-08-21T17:55:03.000Z</time>
      </trkpt>
      <trkpt lat="46.44293" lon="6.0855">
        <ele>1293.2</ele>
        <time>2012-08-21T17:55:06.000Z</time>
      </trkpt>
      <trkpt lat="46.44288" lon="6.08547">
        <ele>1295.1</ele>
        <time>2012-08-21T17:55:09.000Z</time>
      </trkpt>
      <trkpt lat="46.44291" lon="6.08554">
        <ele>1291.9</ele>
        <time>2012-08-21T17:55:12.000Z</time>
      </trkpt>
    </trkseg>
  </trk>
</gpx>